<?xml version='1.0' encoding='UTF-8'?><gpx version="1.1" creator="JPX - https://github.com/jenetics/jpx" xmlns="http://www.topografix.com/GPX/1/1"><trk><trkseg><trkpt lat="44.9484983" lon="7.2904967"><ele>783.0</ele><time>2026-03-29T12:03:43.954Z</time></trkpt><trkpt lat="44.9484567" lon="7.2903917"><ele>783.0</ele><time>2026-03-29T12:04:36.955Z</time></trkpt><trkpt lat="44.9484133" lon="7.29025"><ele>783.0</ele><time>2026-03-29T12:04:38.955Z</time></trkpt><trkpt lat="44.9484583" lon="7.2901"><ele>783.0</ele><time>2026-03-29T12:04:40.955Z</time></trkpt><trkpt lat="44.9485117" lon="7.2900167"><ele>783.0</ele><time>2026-03-29T12:04:41.955Z</time></trkpt><trkpt lat="44.948565" lon="7.289945"><ele>783.0</ele><time>2026-03-29T12:04:42.955Z</time></trkpt><trkpt lat="44.9486133" lon="7.289885"><ele>783.0</ele><time>2026-03-29T12:04:43.955Z</time></trkpt><trkpt lat="44.9486583" lon="7.28977"><ele>783.0</ele><time>2026-03-29T12:04:45.955Z</time></trkpt><trkpt lat="44.9486033" lon="7.289725"><ele>783.0</ele><time>2026-03-29T12:04:46.955Z</time></trkpt><trkpt lat="44.9485417" lon="7.2896833"><ele>783.0</ele><time>2026-03-29T12:04:47.955Z</time></trkpt><trkpt lat="44.94847" lon="7.2896567"><ele>783.0</ele><time>2026-03-29T12:04:48.955Z</time></trkpt><trkpt lat="44.9484133" lon="7.28961"><ele>783.0</ele><time>2026-03-29T12:04:49.955Z</time></trkpt><trkpt lat="44.9483633" lon="7.2894517"><ele>783.1666666666666</ele><time>2026-03-29T12:04:51.955Z</time></trkpt><trkpt lat="44.94836" lon="7.2893567"><ele>783.3333333333333</ele><time>2026-03-29T12:04:52.955Z</time></trkpt><trkpt lat="44.9483633" lon="7.2892283"><ele>783.5</ele><time>2026-03-29T12:04:53.955Z</time></trkpt><trkpt lat="44.9483667" lon="7.2890933"><ele>783.6666666666666</ele><time>2026-03-29T12:04:54.955Z</time></trkpt><trkpt lat="44.9483583" lon="7.2889717"><ele>783.8333333333333</ele><time>2026-03-29T12:04:55.955Z</time></trkpt><trkpt lat="44.9483483" lon="7.2888733"><ele>784.0</ele><time>2026-03-29T12:04:56.955Z</time></trkpt><trkpt lat="44.948295" lon="7.288825"><ele>784.0</ele><time>2026-03-29T12:04:59.955Z</time></trkpt><trkpt lat="44.9482117" lon="7.28892"><ele>784.0</ele><time>2026-03-29T12:05:02.954Z</time></trkpt><trkpt lat="44.9481517" lon="7.2889817"><ele>784.0</ele><time>2026-03-29T12:05:03.954Z</time></trkpt><trkpt lat="44.9480767" lon="7.2890517"><ele>784.0</ele><time>2026-03-29T12:05:04.955Z</time></trkpt><trkpt lat="44.9479867" lon="7.2891433"><ele>784.0</ele><time>2026-03-29T12:05:05.955Z</time></trkpt><trkpt lat="44.9479067" lon="7.2892433"><ele>784.0</ele><time>2026-03-29T12:05:06.955Z</time></trkpt><trkpt lat="44.9478333" lon="7.289345"><ele>784.0</ele><time>2026-03-29T12:05:07.954Z</time></trkpt><trkpt lat="44.9477567" lon="7.2894583"><ele>784.0</ele><time>2026-03-29T12:05:08.955Z</time></trkpt><trkpt lat="44.94769" lon="7.289545"><ele>784.0</ele><time>2026-03-29T12:05:09.955Z</time></trkpt><trkpt lat="44.947625" lon="7.2896067"><ele>784.0</ele><time>2026-03-29T12:05:10.954Z</time></trkpt><trkpt lat="44.947505" lon="7.2896517"><ele>786.8333333333333</ele><time>2026-03-29T12:05:12.955Z</time></trkpt><trkpt lat="44.947435" lon="7.2895233"><ele>789.6666666666666</ele><time>2026-03-29T12:05:14.955Z</time></trkpt><trkpt lat="44.94743" lon="7.2894033"><ele>792.5</ele><time>2026-03-29T12:05:15.955Z</time></trkpt><trkpt lat="44.9474317" lon="7.289285"><ele>795.3333333333333</ele><time>2026-03-29T12:05:16.955Z</time></trkpt><trkpt lat="44.94743" lon="7.289185"><ele>798.1666666666666</ele><time>2026-03-29T12:05:17.955Z</time></trkpt><trkpt lat="44.947415" lon="7.2890867"><ele>801.0</ele><time>2026-03-29T12:05:18.955Z</time></trkpt><trkpt lat="44.947365" lon="7.2889417"><ele>804.8</ele><time>2026-03-29T12:05:20.955Z</time></trkpt><trkpt lat="44.9472983" lon="7.2887983"><ele>808.5999999999999</ele><time>2026-03-29T12:05:22.954Z</time></trkpt><trkpt lat="44.9472667" lon="7.28872"><ele>812.4</ele><time>2026-03-29T12:05:23.955Z</time></trkpt><trkpt lat="44.9472117" lon="7.2885767"><ele>816.2</ele><time>2026-03-29T12:05:25.955Z</time></trkpt><trkpt lat="44.9471633" lon="7.2884633"><ele>820.0</ele><time>2026-03-29T12:05:27.955Z</time></trkpt><trkpt lat="44.9470833" lon="7.2883783"><ele>819.9999999999999</ele><time>2026-03-29T12:05:29.955Z</time></trkpt><trkpt lat="44.9469583" lon="7.2883233"><ele>820.0</ele><time>2026-03-29T12:05:31.955Z</time></trkpt><trkpt lat="44.9468817" lon="7.2883033"><ele>820.0</ele><time>2026-03-29T12:05:32.955Z</time></trkpt><trkpt lat="44.9468067" lon="7.2882933"><ele>820.0</ele><time>2026-03-29T12:05:33.955Z</time></trkpt><trkpt lat="44.9467283" lon="7.2882917"><ele>819.9999999999999</ele><time>2026-03-29T12:05:34.955Z</time></trkpt><trkpt lat="44.9466517" lon="7.2883117"><ele>820.0</ele><time>2026-03-29T12:05:35.955Z</time></trkpt><trkpt lat="44.946585" lon="7.2883383"><ele>820.3333333333333</ele><time>2026-03-29T12:05:36.954Z</time></trkpt><trkpt lat="44.9465267" lon="7.2883817"><ele>820.6666666666666</ele><time>2026-03-29T12:05:37.955Z</time></trkpt><trkpt lat="44.946475" lon="7.288435"><ele>821.0</ele><time>2026-03-29T12:05:38.955Z</time></trkpt><trkpt lat="44.94643" lon="7.2884983"><ele>821.3333333333333</ele><time>2026-03-29T12:05:39.955Z</time></trkpt><trkpt lat="44.9463717" lon="7.2886033"><ele>821.6666666666666</ele><time>2026-03-29T12:05:41.955Z</time></trkpt><trkpt lat="44.9463167" lon="7.2887467"><ele>822.0</ele><time>2026-03-29T12:05:43.955Z</time></trkpt><trkpt lat="44.9462917" lon="7.288845"><ele>818.5</ele><time>2026-03-29T12:05:44.955Z</time></trkpt><trkpt lat="44.946285" lon="7.2889417"><ele>815.0</ele><time>2026-03-29T12:05:45.955Z</time></trkpt><trkpt lat="44.9462583" lon="7.2890783"><ele>811.5</ele><time>2026-03-29T12:05:47.955Z</time></trkpt><trkpt lat="44.9462333" lon="7.2891733"><ele>808.0</ele><time>2026-03-29T12:05:50.955Z</time></trkpt><trkpt lat="44.9461783" lon="7.2892283"><ele>804.5</ele><time>2026-03-29T12:05:57.955Z</time></trkpt><trkpt lat="44.94625" lon="7.28921"><ele>801.0</ele><time>2026-03-29T12:06:02.955Z</time></trkpt><trkpt lat="44.94629" lon="7.2891283"><ele>801.0</ele><time>2026-03-29T12:06:04.955Z</time></trkpt><trkpt lat="44.9463083" lon="7.288985"><ele>801.0</ele><time>2026-03-29T12:06:06.955Z</time></trkpt><trkpt lat="44.946315" lon="7.2888733"><ele>801.0</ele><time>2026-03-29T12:06:07.955Z</time></trkpt><trkpt lat="44.9463333" lon="7.2887817"><ele>801.0</ele><time>2026-03-29T12:06:08.955Z</time></trkpt><trkpt lat="44.9463717" lon="7.288635"><ele>801.0</ele><time>2026-03-29T12:06:10.955Z</time></trkpt><trkpt lat="44.94643" lon="7.2885183"><ele>804.1666666666666</ele><time>2026-03-29T12:06:12.955Z</time></trkpt><trkpt lat="44.9464933" lon="7.2884"><ele>807.3333333333333</ele><time>2026-03-29T12:06:14.955Z</time></trkpt><trkpt lat="44.946595" lon="7.2883217"><ele>810.5</ele><time>2026-03-29T12:06:16.955Z</time></trkpt><trkpt lat="44.9466617" lon="7.2883033"><ele>813.6666666666666</ele><time>2026-03-29T12:06:17.955Z</time></trkpt><trkpt lat="44.9467333" lon="7.288295"><ele>816.8333333333333</ele><time>2026-03-29T12:06:18.955Z</time></trkpt><trkpt lat="44.946805" lon="7.2882983"><ele>820.0</ele><time>2026-03-29T12:06:19.955Z</time></trkpt><trkpt lat="44.9468933" lon="7.288295"><ele>820.0</ele><time>2026-03-29T12:06:20.955Z</time></trkpt><trkpt lat="44.9469783" lon="7.2882967"><ele>820.0</ele><time>2026-03-29T12:06:21.955Z</time></trkpt><trkpt lat="44.94705" lon="7.28831"><ele>820.0</ele><time>2026-03-29T12:06:22.955Z</time></trkpt><trkpt lat="44.9471417" lon="7.2883967"><ele>820.0</ele><time>2026-03-29T12:06:24.955Z</time></trkpt><trkpt lat="44.9472033" lon="7.28852"><ele>820.0</ele><time>2026-03-29T12:06:26.955Z</time></trkpt><trkpt lat="44.947255" lon="7.2886617"><ele>820.0</ele><time>2026-03-29T12:06:28.954Z</time></trkpt><trkpt lat="44.9473233" lon="7.2888083"><ele>820.0</ele><time>2026-03-29T12:06:30.955Z</time></trkpt><trkpt lat="44.94739" lon="7.288935"><ele>820.0</ele><time>2026-03-29T12:06:32.955Z</time></trkpt><trkpt lat="44.9474483" lon="7.28901"><ele>820.0</ele><time>2026-03-29T12:06:34.954Z</time></trkpt><trkpt lat="44.9475217" lon="7.2890283"><ele>820.0</ele><time>2026-03-29T12:06:36.955Z</time></trkpt><trkpt lat="44.9476067" lon="7.2889883"><ele>820.0</ele><time>2026-03-29T12:06:38.955Z</time></trkpt><trkpt lat="44.94763" lon="7.2889"><ele>820.0</ele><time>2026-03-29T12:06:41.955Z</time></trkpt><trkpt lat="44.9475583" lon="7.2889083"><ele>820.0</ele><time>2026-03-29T12:06:43.955Z</time></trkpt><trkpt lat="44.94749" lon="7.2889133"><ele>820.0</ele><time>2026-03-29T12:06:45.955Z</time></trkpt><trkpt lat="44.9474783" lon="7.2888167"><ele>820.0</ele><time>2026-03-29T12:07:03.954Z</time></trkpt><trkpt lat="44.94756" lon="7.2887367"><ele>820.0</ele><time>2026-03-29T12:07:05.955Z</time></trkpt><trkpt lat="44.9476067" lon="7.2886733"><ele>820.0</ele><time>2026-03-29T12:07:06.955Z</time></trkpt><trkpt lat="44.9476433" lon="7.2885983"><ele>817.9999999999999</ele><time>2026-03-29T12:07:07.955Z</time></trkpt><trkpt lat="44.9476667" lon="7.288505"><ele>816.0</ele><time>2026-03-29T12:07:08.955Z</time></trkpt><trkpt lat="44.947685" lon="7.2884"><ele>814.0</ele><time>2026-03-29T12:07:09.955Z</time></trkpt><trkpt lat="44.9476917" lon="7.2882933"><ele>812.0</ele><time>2026-03-29T12:07:10.955Z</time></trkpt><trkpt lat="44.9476967" lon="7.288195"><ele>809.9999999999999</ele><time>2026-03-29T12:07:11.955Z</time></trkpt><trkpt lat="44.947705" lon="7.2881033"><ele>808.0</ele><time>2026-03-29T12:07:12.954Z</time></trkpt><trkpt lat="44.9477083" lon="7.2879717"><ele>808.0</ele><time>2026-03-29T12:07:14.955Z</time></trkpt><trkpt lat="44.9477083" lon="7.2878117"><ele>808.0</ele><time>2026-03-29T12:07:44.955Z</time></trkpt><trkpt lat="44.9477117" lon="7.2876733"><ele>808.0</ele><time>2026-03-29T12:07:46.955Z</time></trkpt><trkpt lat="44.9477" lon="7.2875083"><ele>808.0</ele><time>2026-03-29T12:07:48.954Z</time></trkpt><trkpt lat="44.9476583" lon="7.2873267"><ele>809.4999999999999</ele><time>2026-03-29T12:07:50.954Z</time></trkpt><trkpt lat="44.9476383" lon="7.287215"><ele>811.0</ele><time>2026-03-29T12:07:51.955Z</time></trkpt><trkpt lat="44.9476133" lon="7.287075"><ele>812.5</ele><time>2026-03-29T12:07:53.955Z</time></trkpt><trkpt lat="44.94756" lon="7.2870167"><ele>814.0</ele><time>2026-03-29T12:07:55.955Z</time></trkpt><trkpt lat="44.94747" lon="7.2870017"><ele>815.4999999999999</ele><time>2026-03-29T12:07:58.955Z</time></trkpt><trkpt lat="44.9474233" lon="7.2869383"><ele>817.0</ele><time>2026-03-29T12:08:00.955Z</time></trkpt><trkpt lat="44.9473733" lon="7.28684"><ele>824.2</ele><time>2026-03-29T12:08:02.955Z</time></trkpt><trkpt lat="44.9473133" lon="7.2867217"><ele>831.4000000000001</ele><time>2026-03-29T12:08:04.955Z</time></trkpt><trkpt lat="44.94727" lon="7.2866567"><ele>838.5999999999999</ele><time>2026-03-29T12:08:05.955Z</time></trkpt><trkpt lat="44.9471883" lon="7.28652"><ele>845.8</ele><time>2026-03-29T12:08:07.955Z</time></trkpt><trkpt lat="44.94712" lon="7.2864033"><ele>853.0</ele><time>2026-03-29T12:08:09.955Z</time></trkpt><trkpt lat="44.9470517" lon="7.2862667"><ele>857.5999999999999</ele><time>2026-03-29T12:08:11.954Z</time></trkpt><trkpt lat="44.9469717" lon="7.2861583"><ele>862.1999999999999</ele><time>2026-03-29T12:08:13.955Z</time></trkpt><trkpt lat="44.9468767" lon="7.2860983"><ele>866.8</ele><time>2026-03-29T12:08:15.955Z</time></trkpt><trkpt lat="44.9467733" lon="7.2861233"><ele>871.4</ele><time>2026-03-29T12:08:17.955Z</time></trkpt><trkpt lat="44.94671" lon="7.286155"><ele>876.0</ele><time>2026-03-29T12:08:18.955Z</time></trkpt><trkpt lat="44.9466467" lon="7.2861867"><ele>876.1666666666666</ele><time>2026-03-29T12:08:19.955Z</time></trkpt><trkpt lat="44.9465883" lon="7.28622"><ele>876.3333333333333</ele><time>2026-03-29T12:08:20.955Z</time></trkpt><trkpt lat="44.9465283" lon="7.2862533"><ele>876.5</ele><time>2026-03-29T12:08:21.955Z</time></trkpt><trkpt lat="44.946425" lon="7.28632"><ele>876.6666666666666</ele><time>2026-03-29T12:08:23.955Z</time></trkpt><trkpt lat="44.9463367" lon="7.2864183"><ele>876.8333333333333</ele><time>2026-03-29T12:08:25.954Z</time></trkpt><trkpt lat="44.9462867" lon="7.2864783"><ele>877.0</ele><time>2026-03-29T12:08:26.955Z</time></trkpt><trkpt lat="44.9462417" lon="7.2865467"><ele>877.0</ele><time>2026-03-29T12:08:27.955Z</time></trkpt><trkpt lat="44.9461933" lon="7.2866217"><ele>877.0</ele><time>2026-03-29T12:08:28.955Z</time></trkpt><trkpt lat="44.9461183" lon="7.2867217"><ele>877.0</ele><time>2026-03-29T12:08:30.954Z</time></trkpt><trkpt lat="44.9460283" lon="7.2867567"><ele>877.0</ele><time>2026-03-29T12:08:32.955Z</time></trkpt><trkpt lat="44.9459417" lon="7.2866933"><ele>877.0</ele><time>2026-03-29T12:08:34.955Z</time></trkpt><trkpt lat="44.9458933" lon="7.2865717"><ele>876.9999999999999</ele><time>2026-03-29T12:08:36.955Z</time></trkpt><trkpt lat="44.945915" lon="7.2864617"><ele>877.0</ele><time>2026-03-29T12:08:38.955Z</time></trkpt><trkpt lat="44.9459667" lon="7.2863567"><ele>877.0</ele><time>2026-03-29T12:08:40.955Z</time></trkpt><trkpt lat="44.9460317" lon="7.2863017"><ele>877.0</ele><time>2026-03-29T12:08:42.955Z</time></trkpt><trkpt lat="44.94608" lon="7.2862317"><ele>876.9999999999999</ele><time>2026-03-29T12:08:44.955Z</time></trkpt><trkpt lat="44.9460867" lon="7.28611"><ele>877.0</ele><time>2026-03-29T12:08:47.955Z</time></trkpt><trkpt lat="44.9461317" lon="7.2860017"><ele>880.1666666666666</ele><time>2026-03-29T12:08:49.955Z</time></trkpt><trkpt lat="44.9461667" lon="7.2858833"><ele>883.3333333333333</ele><time>2026-03-29T12:08:51.955Z</time></trkpt><trkpt lat="44.9462167" lon="7.2858033"><ele>886.5</ele><time>2026-03-29T12:08:53.955Z</time></trkpt><trkpt lat="44.9462967" lon="7.2857167"><ele>889.6666666666667</ele><time>2026-03-29T12:08:55.955Z</time></trkpt><trkpt lat="44.94636" lon="7.2856317"><ele>892.8333333333334</ele><time>2026-03-29T12:08:57.955Z</time></trkpt><trkpt lat="44.946415" lon="7.285525"><ele>896.0</ele><time>2026-03-29T12:08:59.955Z</time></trkpt><trkpt lat="44.9464717" lon="7.28538"><ele>896.1999999999999</ele><time>2026-03-29T12:09:01.955Z</time></trkpt><trkpt lat="44.94651" lon="7.2852417"><ele>896.3999999999999</ele><time>2026-03-29T12:09:03.955Z</time></trkpt><trkpt lat="44.946565" lon="7.2851317"><ele>896.6</ele><time>2026-03-29T12:09:05.955Z</time></trkpt><trkpt lat="44.9466233" lon="7.2850167"><ele>896.8</ele><time>2026-03-29T12:09:07.955Z</time></trkpt><trkpt lat="44.946685" lon="7.2848983"><ele>897.0</ele><time>2026-03-29T12:09:09.955Z</time></trkpt><trkpt lat="44.9467483" lon="7.2848"><ele>901.0</ele><time>2026-03-29T12:09:11.955Z</time></trkpt><trkpt lat="44.9468" lon="7.2846917"><ele>905.0</ele><time>2026-03-29T12:09:13.955Z</time></trkpt><trkpt lat="44.946845" lon="7.2845717"><ele>909.0</ele><time>2026-03-29T12:09:15.955Z</time></trkpt><trkpt lat="44.9468783" lon="7.2844333"><ele>913.0</ele><time>2026-03-29T12:09:17.955Z</time></trkpt><trkpt lat="44.94691" lon="7.2843183"><ele>917.0</ele><time>2026-03-29T12:09:19.955Z</time></trkpt><trkpt lat="44.9469217" lon="7.2842"><ele>917.0000000000001</ele><time>2026-03-29T12:09:21.955Z</time></trkpt><trkpt lat="44.9469367" lon="7.284085"><ele>917.0</ele><time>2026-03-29T12:09:23.955Z</time></trkpt><trkpt lat="44.9469617" lon="7.2839683"><ele>917.0</ele><time>2026-03-29T12:09:25.955Z</time></trkpt><trkpt lat="44.946965" lon="7.2838617"><ele>917.0</ele><time>2026-03-29T12:09:27.955Z</time></trkpt><trkpt lat="44.946945" lon="7.2837583"><ele>917.0000000000001</ele><time>2026-03-29T12:09:29.955Z</time></trkpt><trkpt lat="44.9469117" lon="7.2836467"><ele>917.0</ele><time>2026-03-29T12:09:31.955Z</time></trkpt><trkpt lat="44.946895" lon="7.2835183"><ele>920.0000000000001</ele><time>2026-03-29T12:09:33.955Z</time></trkpt><trkpt lat="44.94689" lon="7.2833983"><ele>923.0</ele><time>2026-03-29T12:09:35.955Z</time></trkpt><trkpt lat="44.946925" lon="7.283295"><ele>926.0</ele><time>2026-03-29T12:09:38.955Z</time></trkpt><trkpt lat="44.9469933" lon="7.283245"><ele>929.0</ele><time>2026-03-29T12:09:40.955Z</time></trkpt><trkpt lat="44.9470517" lon="7.2831633"><ele>932.0000000000001</ele><time>2026-03-29T12:09:42.955Z</time></trkpt><trkpt lat="44.9470883" lon="7.2830683"><ele>935.0</ele><time>2026-03-29T12:09:44.955Z</time></trkpt><trkpt lat="44.9470917" lon="7.2829583"><ele>939.6666666666667</ele><time>2026-03-29T12:09:46.955Z</time></trkpt><trkpt lat="44.9470483" lon="7.2828817"><ele>944.3333333333334</ele><time>2026-03-29T12:09:48.955Z</time></trkpt><trkpt lat="44.946955" lon="7.282805"><ele>949.0</ele><time>2026-03-29T12:09:50.955Z</time></trkpt><trkpt lat="44.94688" lon="7.2827167"><ele>953.6666666666667</ele><time>2026-03-29T12:09:52.954Z</time></trkpt><trkpt lat="44.9468333" lon="7.2826083"><ele>958.3333333333334</ele><time>2026-03-29T12:09:54.955Z</time></trkpt><trkpt lat="44.9468067" lon="7.2825083"><ele>963.0</ele><time>2026-03-29T12:09:56.955Z</time></trkpt><trkpt lat="44.94678" lon="7.282385"><ele>966.8</ele><time>2026-03-29T12:09:58.955Z</time></trkpt><trkpt lat="44.9467467" lon="7.2822517"><ele>970.5999999999999</ele><time>2026-03-29T12:10:00.955Z</time></trkpt><trkpt lat="44.946705" lon="7.2821333"><ele>974.4000000000001</ele><time>2026-03-29T12:10:02.955Z</time></trkpt><trkpt lat="44.946685" lon="7.2820117"><ele>978.2</ele><time>2026-03-29T12:10:04.955Z</time></trkpt><trkpt lat="44.9466917" lon="7.2818817"><ele>982.0</ele><time>2026-03-29T12:10:06.955Z</time></trkpt><trkpt lat="44.9467017" lon="7.2817533"><ele>981.9999999999999</ele><time>2026-03-29T12:10:08.955Z</time></trkpt><trkpt lat="44.94672" lon="7.2816367"><ele>982.0</ele><time>2026-03-29T12:10:10.955Z</time></trkpt><trkpt lat="44.9467717" lon="7.281515"><ele>982.0</ele><time>2026-03-29T12:10:12.955Z</time></trkpt><trkpt lat="44.9468083" lon="7.2813967"><ele>982.0</ele><time>2026-03-29T12:10:14.954Z</time></trkpt><trkpt lat="44.9468467" lon="7.2812917"><ele>981.9999999999999</ele><time>2026-03-29T12:10:16.955Z</time></trkpt><trkpt lat="44.94688" lon="7.28121"><ele>982.0</ele><time>2026-03-29T12:10:18.955Z</time></trkpt><trkpt lat="44.9468833" lon="7.2811083"><ele>980.9999999999999</ele><time>2026-03-29T12:10:21.955Z</time></trkpt><trkpt lat="44.9468467" lon="7.2809833"><ele>980.0</ele><time>2026-03-29T12:11:03.956Z</time></trkpt><trkpt lat="44.94689" lon="7.2808983"><ele>979.0</ele><time>2026-03-29T12:11:05.956Z</time></trkpt><trkpt lat="44.9469283" lon="7.28081"><ele>978.0</ele><time>2026-03-29T12:11:07.956Z</time></trkpt><trkpt lat="44.9469383" lon="7.2806733"><ele>976.9999999999999</ele><time>2026-03-29T12:11:09.956Z</time></trkpt><trkpt lat="44.9469317" lon="7.280575"><ele>976.0</ele><time>2026-03-29T12:11:10.956Z</time></trkpt><trkpt lat="44.9469133" lon="7.280485"><ele>975.8333333333333</ele><time>2026-03-29T12:11:11.956Z</time></trkpt><trkpt lat="44.9468967" lon="7.2803117"><ele>975.6666666666666</ele><time>2026-03-29T12:11:13.956Z</time></trkpt><trkpt lat="44.9469117" lon="7.2802133"><ele>975.5</ele><time>2026-03-29T12:11:14.955Z</time></trkpt><trkpt lat="44.9469383" lon="7.2801183"><ele>975.3333333333333</ele><time>2026-03-29T12:11:15.956Z</time></trkpt><trkpt lat="44.9469717" lon="7.28002"><ele>975.1666666666666</ele><time>2026-03-29T12:11:16.956Z</time></trkpt><trkpt lat="44.9469967" lon="7.2799333"><ele>975.0</ele><time>2026-03-29T12:11:17.956Z</time></trkpt><trkpt lat="44.9470267" lon="7.27982"><ele>976.8333333333334</ele><time>2026-03-29T12:11:18.956Z</time></trkpt><trkpt lat="44.9470367" lon="7.2797017"><ele>978.6666666666667</ele><time>2026-03-29T12:11:19.956Z</time></trkpt><trkpt lat="44.9470317" lon="7.2795733"><ele>980.5</ele><time>2026-03-29T12:11:20.956Z</time></trkpt><trkpt lat="44.9470283" lon="7.27945"><ele>982.3333333333334</ele><time>2026-03-29T12:11:21.956Z</time></trkpt><trkpt lat="44.9470133" lon="7.2793217"><ele>984.1666666666667</ele><time>2026-03-29T12:11:22.956Z</time></trkpt><trkpt lat="44.9469967" lon="7.2792067"><ele>986.0</ele><time>2026-03-29T12:11:23.956Z</time></trkpt><trkpt lat="44.9469983" lon="7.2790833"><ele>986.0000000000001</ele><time>2026-03-29T12:11:24.956Z</time></trkpt><trkpt lat="44.9470117" lon="7.27898"><ele>986.0</ele><time>2026-03-29T12:11:25.956Z</time></trkpt><trkpt lat="44.9470333" lon="7.2788717"><ele>986.0</ele><time>2026-03-29T12:11:26.956Z</time></trkpt><trkpt lat="44.9470617" lon="7.27875"><ele>986.0</ele><time>2026-03-29T12:11:27.956Z</time></trkpt><trkpt lat="44.9470817" lon="7.2786517"><ele>986.0000000000001</ele><time>2026-03-29T12:11:28.956Z</time></trkpt><trkpt lat="44.9471133" lon="7.2785517"><ele>986.0</ele><time>2026-03-29T12:11:29.956Z</time></trkpt><trkpt lat="44.947135" lon="7.2784533"><ele>988.5000000000001</ele><time>2026-03-29T12:11:30.956Z</time></trkpt><trkpt lat="44.9471567" lon="7.278355"><ele>991.0</ele><time>2026-03-29T12:11:31.956Z</time></trkpt><trkpt lat="44.947185" lon="7.278255"><ele>993.5</ele><time>2026-03-29T12:11:32.956Z</time></trkpt><trkpt lat="44.947205" lon="7.2781483"><ele>996.0</ele><time>2026-03-29T12:11:33.956Z</time></trkpt><trkpt lat="44.9472317" lon="7.27806"><ele>998.5000000000001</ele><time>2026-03-29T12:11:34.956Z</time></trkpt><trkpt lat="44.9472617" lon="7.2779817"><ele>1001.0</ele><time>2026-03-29T12:11:35.956Z</time></trkpt><trkpt lat="44.9473117" lon="7.277835"><ele>1003.3333333333334</ele><time>2026-03-29T12:11:37.956Z</time></trkpt><trkpt lat="44.9473383" lon="7.2776833"><ele>1005.6666666666667</ele><time>2026-03-29T12:11:39.956Z</time></trkpt><trkpt lat="44.9473567" lon="7.2775733"><ele>1008.0</ele><time>2026-03-29T12:11:41.956Z</time></trkpt><trkpt lat="44.9473317" lon="7.277465"><ele>1010.3333333333333</ele><time>2026-03-29T12:12:18.956Z</time></trkpt><trkpt lat="44.9473183" lon="7.2773633"><ele>1012.6666666666666</ele><time>2026-03-29T12:12:23.956Z</time></trkpt><trkpt lat="44.9473317" lon="7.2772433"><ele>1015.0</ele><time>2026-03-29T12:12:27.956Z</time></trkpt><trkpt lat="44.9473683" lon="7.2771483"><ele>1018.8</ele><time>2026-03-29T12:12:29.956Z</time></trkpt><trkpt lat="44.947435" lon="7.27704"><ele>1022.6</ele><time>2026-03-29T12:12:31.956Z</time></trkpt><trkpt lat="44.9475117" lon="7.2769533"><ele>1026.4</ele><time>2026-03-29T12:12:33.956Z</time></trkpt><trkpt lat="44.9476167" lon="7.2768967"><ele>1030.2</ele><time>2026-03-29T12:12:35.956Z</time></trkpt><trkpt lat="44.947725" lon="7.2768183"><ele>1034.0</ele><time>2026-03-29T12:12:37.956Z</time></trkpt><trkpt lat="44.9477917" lon="7.2767333"><ele>1036.2</ele><time>2026-03-29T12:12:39.956Z</time></trkpt><trkpt lat="44.94792" lon="7.2766983"><ele>1038.4</ele><time>2026-03-29T12:17:06.956Z</time></trkpt><trkpt lat="44.9479967" lon="7.276775"><ele>1040.6</ele><time>2026-03-29T12:17:09.956Z</time></trkpt><trkpt lat="44.9480383" lon="7.276845"><ele>1042.8</ele><time>2026-03-29T12:17:10.956Z</time></trkpt><trkpt lat="44.9481067" lon="7.2769683"><ele>1045.0</ele><time>2026-03-29T12:17:12.956Z</time></trkpt><trkpt lat="44.9481533" lon="7.2770717"><ele>1045.0</ele><time>2026-03-29T12:17:14.956Z</time></trkpt><trkpt lat="44.9481883" lon="7.2771883"><ele>1045.0</ele><time>2026-03-29T12:17:16.956Z</time></trkpt><trkpt lat="44.9482317" lon="7.27729"><ele>1045.0</ele><time>2026-03-29T12:17:18.956Z</time></trkpt><trkpt lat="44.9482783" lon="7.277375"><ele>1045.0</ele><time>2026-03-29T12:17:21.955Z</time></trkpt><trkpt lat="44.9483317" lon="7.2774517"><ele>1045.0</ele><time>2026-03-29T12:17:24.956Z</time></trkpt><trkpt lat="44.9483883" lon="7.2775083"><ele>1045.0</ele><time>2026-03-29T12:17:26.956Z</time></trkpt><trkpt lat="44.94845" lon="7.2775817"><ele>1047.2</ele><time>2026-03-29T12:17:28.956Z</time></trkpt><trkpt lat="44.9485417" lon="7.27766"><ele>1049.4</ele><time>2026-03-29T12:17:30.956Z</time></trkpt><trkpt lat="44.9485983" lon="7.2777583"><ele>1051.6</ele><time>2026-03-29T12:17:32.956Z</time></trkpt><trkpt lat="44.94865" lon="7.2779067"><ele>1053.8</ele><time>2026-03-29T12:17:34.956Z</time></trkpt><trkpt lat="44.94868" lon="7.2779917"><ele>1056.0</ele><time>2026-03-29T12:17:35.956Z</time></trkpt><trkpt lat="44.9487283" lon="7.2781383"><ele>1052.1666666666667</ele><time>2026-03-29T12:17:37.956Z</time></trkpt><trkpt lat="44.94878" lon="7.2782433"><ele>1048.3333333333333</ele><time>2026-03-29T12:17:39.955Z</time></trkpt><trkpt lat="44.9488417" lon="7.2782983"><ele>1044.5</ele><time>2026-03-29T12:17:41.956Z</time></trkpt><trkpt lat="44.9489483" lon="7.2782783"><ele>1040.6666666666665</ele><time>2026-03-29T12:23:43.956Z</time></trkpt><trkpt lat="44.9490083" lon="7.2782433"><ele>1036.8333333333333</ele><time>2026-03-29T12:23:45.956Z</time></trkpt><trkpt lat="44.9491083" lon="7.278225"><ele>1033.0</ele><time>2026-03-29T12:24:36.955Z</time></trkpt><trkpt lat="44.949185" lon="7.2781967"><ele>1032.6666666666665</ele><time>2026-03-29T12:24:38.956Z</time></trkpt><trkpt lat="44.94927" lon="7.2781617"><ele>1032.3333333333333</ele><time>2026-03-29T12:24:40.956Z</time></trkpt><trkpt lat="44.9493533" lon="7.2781167"><ele>1032.0</ele><time>2026-03-29T12:24:42.956Z</time></trkpt><trkpt lat="44.9494583" lon="7.2780717"><ele>1031.6666666666667</ele><time>2026-03-29T12:24:44.956Z</time></trkpt><trkpt lat="44.9495167" lon="7.2780333"><ele>1031.3333333333335</ele><time>2026-03-29T12:24:45.956Z</time></trkpt><trkpt lat="44.949585" lon="7.2779867"><ele>1031.0</ele><time>2026-03-29T12:24:46.956Z</time></trkpt><trkpt lat="44.9496417" lon="7.2779383"><ele>1034.2</ele><time>2026-03-29T12:24:47.956Z</time></trkpt><trkpt lat="44.9497467" lon="7.2778733"><ele>1037.3999999999999</ele><time>2026-03-29T12:24:49.956Z</time></trkpt><trkpt lat="44.9498483" lon="7.277855"><ele>1040.6</ele><time>2026-03-29T12:24:51.956Z</time></trkpt><trkpt lat="44.9499517" lon="7.2778817"><ele>1043.8</ele><time>2026-03-29T12:24:53.956Z</time></trkpt><trkpt lat="44.9500667" lon="7.2778917"><ele>1047.0</ele><time>2026-03-29T12:24:55.956Z</time></trkpt><trkpt lat="44.95019" lon="7.2779017"><ele>1047.0</ele><time>2026-03-29T12:24:57.955Z</time></trkpt><trkpt lat="44.9502533" lon="7.277905"><ele>1047.0</ele><time>2026-03-29T12:24:58.956Z</time></trkpt><trkpt lat="44.9503633" lon="7.277915"><ele>1047.0</ele><time>2026-03-29T12:25:00.956Z</time></trkpt><trkpt lat="44.9504567" lon="7.2779067"><ele>1047.0</ele><time>2026-03-29T12:25:02.956Z</time></trkpt><trkpt lat="44.950525" lon="7.2779017"><ele>1047.0</ele><time>2026-03-29T12:25:04.956Z</time></trkpt><trkpt lat="44.9505783" lon="7.2778233"><ele>1047.0</ele><time>2026-03-29T12:25:47.956Z</time></trkpt><trkpt lat="44.950635" lon="7.2777417"><ele>1047.0</ele><time>2026-03-29T12:25:49.956Z</time></trkpt><trkpt lat="44.9506817" lon="7.277655"><ele>1047.0</ele><time>2026-03-29T12:25:51.956Z</time></trkpt><trkpt lat="44.9507283" lon="7.27755"><ele>1047.0</ele><time>2026-03-29T12:25:53.956Z</time></trkpt><trkpt lat="44.9507817" lon="7.2774317"><ele>1047.0</ele><time>2026-03-29T12:25:55.956Z</time></trkpt><trkpt lat="44.9508267" lon="7.2773133"><ele>1047.0</ele><time>2026-03-29T12:25:57.955Z</time></trkpt><trkpt lat="44.950865" lon="7.2772033"><ele>1047.0</ele><time>2026-03-29T12:25:59.956Z</time></trkpt><trkpt lat="44.9508933" lon="7.2771017"><ele>1051.3333333333333</ele><time>2026-03-29T12:26:01.956Z</time></trkpt><trkpt lat="44.9509183" lon="7.27699"><ele>1055.6666666666667</ele><time>2026-03-29T12:26:03.956Z</time></trkpt><trkpt lat="44.9509417" lon="7.27689"><ele>1060.0</ele><time>2026-03-29T12:26:05.956Z</time></trkpt><trkpt lat="44.95096" lon="7.2767867"><ele>1064.3333333333335</ele><time>2026-03-29T12:26:07.956Z</time></trkpt><trkpt lat="44.950975" lon="7.2766867"><ele>1068.6666666666667</ele><time>2026-03-29T12:26:09.956Z</time></trkpt><trkpt lat="44.9509767" lon="7.2765733"><ele>1073.0</ele><time>2026-03-29T12:26:11.956Z</time></trkpt><trkpt lat="44.950955" lon="7.276465"><ele>1074.6666666666667</ele><time>2026-03-29T12:26:13.956Z</time></trkpt><trkpt lat="44.95095" lon="7.2763517"><ele>1076.3333333333335</ele><time>2026-03-29T12:26:15.956Z</time></trkpt><trkpt lat="44.9509617" lon="7.2762333"><ele>1078.0</ele><time>2026-03-29T12:26:17.956Z</time></trkpt><trkpt lat="44.9509283" lon="7.2761117"><ele>1079.6666666666667</ele><time>2026-03-29T12:26:19.956Z</time></trkpt><trkpt lat="44.9508733" lon="7.2760283"><ele>1081.3333333333333</ele><time>2026-03-29T12:26:21.956Z</time></trkpt><trkpt lat="44.9508117" lon="7.2759417"><ele>1083.0</ele><time>2026-03-29T12:26:23.957Z</time></trkpt><trkpt lat="44.9507417" lon="7.275845"><ele>1083.4</ele><time>2026-03-29T12:26:25.957Z</time></trkpt><trkpt lat="44.9506483" lon="7.2757417"><ele>1083.8</ele><time>2026-03-29T12:26:27.957Z</time></trkpt><trkpt lat="44.9505533" lon="7.27565"><ele>1084.2</ele><time>2026-03-29T12:26:29.957Z</time></trkpt><trkpt lat="44.950485" lon="7.2755667"><ele>1084.6</ele><time>2026-03-29T12:26:31.957Z</time></trkpt><trkpt lat="44.9504367" lon="7.275475"><ele>1085.0</ele><time>2026-03-29T12:26:33.957Z</time></trkpt><trkpt lat="44.950415" lon="7.27533"><ele>1087.2</ele><time>2026-03-29T12:26:35.957Z</time></trkpt><trkpt lat="44.9504133" lon="7.2751617"><ele>1089.4</ele><time>2026-03-29T12:26:37.957Z</time></trkpt><trkpt lat="44.950415" lon="7.275025"><ele>1091.6</ele><time>2026-03-29T12:26:39.957Z</time></trkpt><trkpt lat="44.9504083" lon="7.2749217"><ele>1093.8</ele><time>2026-03-29T12:26:41.957Z</time></trkpt><trkpt lat="44.9503367" lon="7.2748283"><ele>1096.0</ele><time>2026-03-29T12:26:43.957Z</time></trkpt><trkpt lat="44.9502333" lon="7.2747217"><ele>1098.8</ele><time>2026-03-29T12:26:45.957Z</time></trkpt><trkpt lat="44.95016" lon="7.274625"><ele>1101.6</ele><time>2026-03-29T12:26:47.957Z</time></trkpt><trkpt lat="44.95013" lon="7.2745067"><ele>1104.4</ele><time>2026-03-29T12:26:49.957Z</time></trkpt><trkpt lat="44.9501533" lon="7.2743817"><ele>1107.2</ele><time>2026-03-29T12:26:51.957Z</time></trkpt><trkpt lat="44.950175" lon="7.2742417"><ele>1110.0</ele><time>2026-03-29T12:27:16.956Z</time></trkpt><trkpt lat="44.9501967" lon="7.2741083"><ele>1110.0</ele><time>2026-03-29T12:27:18.957Z</time></trkpt><trkpt lat="44.9502183" lon="7.27401"><ele>1110.0</ele><time>2026-03-29T12:27:20.957Z</time></trkpt><trkpt lat="44.9503183" lon="7.273915"><ele>1110.0</ele><time>2026-03-29T12:27:41.957Z</time></trkpt><trkpt lat="44.95039" lon="7.2738867"><ele>1110.0</ele><time>2026-03-29T12:27:43.957Z</time></trkpt><trkpt lat="44.9504867" lon="7.273875"><ele>1110.0</ele><time>2026-03-29T12:27:45.957Z</time></trkpt><trkpt lat="44.9505917" lon="7.27387"><ele>1113.2</ele><time>2026-03-29T12:27:47.957Z</time></trkpt><trkpt lat="44.9506933" lon="7.2738633"><ele>1116.4</ele><time>2026-03-29T12:27:49.957Z</time></trkpt><trkpt lat="44.95081" lon="7.27385"><ele>1119.6</ele><time>2026-03-29T12:27:51.957Z</time></trkpt><trkpt lat="44.9509083" lon="7.2738267"><ele>1122.8</ele><time>2026-03-29T12:27:53.957Z</time></trkpt><trkpt lat="44.9509967" lon="7.273785"><ele>1126.0</ele><time>2026-03-29T12:27:55.957Z</time></trkpt><trkpt lat="44.9510883" lon="7.2737333"><ele>1126.6666666666665</ele><time>2026-03-29T12:27:57.957Z</time></trkpt><trkpt lat="44.9511733" lon="7.2736667"><ele>1127.3333333333333</ele><time>2026-03-29T12:27:59.957Z</time></trkpt><trkpt lat="44.9512217" lon="7.2735783"><ele>1128.0</ele><time>2026-03-29T12:28:01.957Z</time></trkpt><trkpt lat="44.9511967" lon="7.2734633"><ele>1128.6666666666667</ele><time>2026-03-29T12:28:03.957Z</time></trkpt><trkpt lat="44.9511733" lon="7.2733483"><ele>1129.3333333333335</ele><time>2026-03-29T12:28:05.957Z</time></trkpt><trkpt lat="44.9511583" lon="7.2732617"><ele>1130.0</ele><time>2026-03-29T12:28:07.957Z</time></trkpt><trkpt lat="44.951145" lon="7.27315"><ele>1129.3333333333335</ele><time>2026-03-29T12:28:41.957Z</time></trkpt><trkpt lat="44.95113" lon="7.2730517"><ele>1128.6666666666667</ele><time>2026-03-29T12:28:43.957Z</time></trkpt><trkpt lat="44.9510633" lon="7.2729617"><ele>1128.0</ele><time>2026-03-29T12:28:45.957Z</time></trkpt><trkpt lat="44.9509533" lon="7.2728617"><ele>1127.3333333333333</ele><time>2026-03-29T12:28:47.957Z</time></trkpt><trkpt lat="44.9509" lon="7.2728117"><ele>1126.6666666666665</ele><time>2026-03-29T12:28:48.957Z</time></trkpt><trkpt lat="44.950835" lon="7.2727533"><ele>1126.0</ele><time>2026-03-29T12:28:49.956Z</time></trkpt><trkpt lat="44.9507533" lon="7.2726983"><ele>1125.1666666666665</ele><time>2026-03-29T12:28:50.957Z</time></trkpt><trkpt lat="44.95067" lon="7.2726467"><ele>1124.3333333333333</ele><time>2026-03-29T12:28:51.957Z</time></trkpt><trkpt lat="44.95059" lon="7.272595"><ele>1123.5</ele><time>2026-03-29T12:28:52.957Z</time></trkpt><trkpt lat="44.9505117" lon="7.2725767"><ele>1122.6666666666667</ele><time>2026-03-29T12:28:53.957Z</time></trkpt><trkpt lat="44.9504233" lon="7.2725683"><ele>1121.8333333333335</ele><time>2026-03-29T12:28:54.957Z</time></trkpt><trkpt lat="44.9503383" lon="7.272565"><ele>1121.0</ele><time>2026-03-29T12:28:55.957Z</time></trkpt><trkpt lat="44.95026" lon="7.272555"><ele>1121.0</ele><time>2026-03-29T12:28:56.957Z</time></trkpt><trkpt lat="44.9501817" lon="7.27255"><ele>1121.0</ele><time>2026-03-29T12:28:57.957Z</time></trkpt><trkpt lat="44.9501067" lon="7.2725383"><ele>1121.0</ele><time>2026-03-29T12:28:58.957Z</time></trkpt><trkpt lat="44.9500283" lon="7.2725367"><ele>1121.0</ele><time>2026-03-29T12:28:59.957Z</time></trkpt><trkpt lat="44.9499383" lon="7.2725517"><ele>1121.0</ele><time>2026-03-29T12:29:00.957Z</time></trkpt><trkpt lat="44.9498417" lon="7.2725617"><ele>1121.0</ele><time>2026-03-29T12:29:01.957Z</time></trkpt><trkpt lat="44.949735" lon="7.27258"><ele>1122.6</ele><time>2026-03-29T12:29:02.957Z</time></trkpt><trkpt lat="44.94964" lon="7.2725967"><ele>1124.1999999999998</ele><time>2026-03-29T12:29:03.957Z</time></trkpt><trkpt lat="44.9495433" lon="7.2725967"><ele>1125.8000000000002</ele><time>2026-03-29T12:29:04.957Z</time></trkpt><trkpt lat="44.949445" lon="7.2725983"><ele>1127.4</ele><time>2026-03-29T12:29:05.957Z</time></trkpt><trkpt lat="44.949345" lon="7.2725767"><ele>1129.0</ele><time>2026-03-29T12:29:06.957Z</time></trkpt><trkpt lat="44.949265" lon="7.2725483"><ele>1129.6666666666665</ele><time>2026-03-29T12:29:07.957Z</time></trkpt><trkpt lat="44.9491883" lon="7.2725083"><ele>1130.3333333333333</ele><time>2026-03-29T12:29:08.957Z</time></trkpt><trkpt lat="44.9491183" lon="7.272455"><ele>1131.0</ele><time>2026-03-29T12:29:09.956Z</time></trkpt><trkpt lat="44.949055" lon="7.2723883"><ele>1131.6666666666667</ele><time>2026-03-29T12:29:10.957Z</time></trkpt><trkpt lat="44.9489983" lon="7.27229"><ele>1132.3333333333335</ele><time>2026-03-29T12:29:11.957Z</time></trkpt><trkpt lat="44.9489367" lon="7.2721667"><ele>1133.0</ele><time>2026-03-29T12:29:12.957Z</time></trkpt><trkpt lat="44.9488667" lon="7.272025"><ele>1133.0</ele><time>2026-03-29T12:29:13.957Z</time></trkpt><trkpt lat="44.9488" lon="7.27188"><ele>1133.0</ele><time>2026-03-29T12:29:14.957Z</time></trkpt><trkpt lat="44.9487333" lon="7.27175"><ele>1133.0</ele><time>2026-03-29T12:29:15.957Z</time></trkpt><trkpt lat="44.9486617" lon="7.271635"><ele>1133.0</ele><time>2026-03-29T12:29:16.957Z</time></trkpt><trkpt lat="44.9485933" lon="7.27153"><ele>1133.0</ele><time>2026-03-29T12:29:17.957Z</time></trkpt><trkpt lat="44.9485233" lon="7.271455"><ele>1133.8333333333335</ele><time>2026-03-29T12:29:18.957Z</time></trkpt><trkpt lat="44.9484483" lon="7.2713883"><ele>1134.6666666666667</ele><time>2026-03-29T12:29:19.957Z</time></trkpt><trkpt lat="44.9483717" lon="7.271335"><ele>1135.5</ele><time>2026-03-29T12:29:20.957Z</time></trkpt><trkpt lat="44.9482967" lon="7.271305"><ele>1136.3333333333333</ele><time>2026-03-29T12:29:21.957Z</time></trkpt><trkpt lat="44.94823" lon="7.2713067"><ele>1137.1666666666665</ele><time>2026-03-29T12:29:22.957Z</time></trkpt><trkpt lat="44.9481583" lon="7.2713367"><ele>1138.0</ele><time>2026-03-29T12:29:23.957Z</time></trkpt><trkpt lat="44.9480667" lon="7.2714067"><ele>1139.0</ele><time>2026-03-29T12:29:24.956Z</time></trkpt><trkpt lat="44.947965" lon="7.2714933"><ele>1140.0</ele><time>2026-03-29T12:29:25.957Z</time></trkpt><trkpt lat="44.94786" lon="7.271565"><ele>1141.0</ele><time>2026-03-29T12:29:26.957Z</time></trkpt><trkpt lat="44.9477533" lon="7.2716217"><ele>1142.0</ele><time>2026-03-29T12:29:27.957Z</time></trkpt><trkpt lat="44.947645" lon="7.271645"><ele>1142.2</ele><time>2026-03-29T12:29:28.957Z</time></trkpt><trkpt lat="44.9475417" lon="7.2716683"><ele>1142.4</ele><time>2026-03-29T12:29:29.957Z</time></trkpt><trkpt lat="44.9474383" lon="7.2716833"><ele>1142.6</ele><time>2026-03-29T12:29:30.957Z</time></trkpt><trkpt lat="44.9473283" lon="7.271705"><ele>1142.8</ele><time>2026-03-29T12:29:31.957Z</time></trkpt><trkpt lat="44.94723" lon="7.2717033"><ele>1143.0</ele><time>2026-03-29T12:29:32.957Z</time></trkpt><trkpt lat="44.94713" lon="7.2717167"><ele>1143.0</ele><time>2026-03-29T12:29:33.957Z</time></trkpt><trkpt lat="44.9470417" lon="7.27175"><ele>1143.0</ele><time>2026-03-29T12:29:34.957Z</time></trkpt><trkpt lat="44.9469483" lon="7.271805"><ele>1143.0</ele><time>2026-03-29T12:29:35.957Z</time></trkpt><trkpt lat="44.9468567" lon="7.271885"><ele>1143.0</ele><time>2026-03-29T12:29:36.957Z</time></trkpt><trkpt lat="44.9467633" lon="7.2719833"><ele>1143.0</ele><time>2026-03-29T12:29:37.957Z</time></trkpt><trkpt lat="44.94667" lon="7.2721017"><ele>1142.25</ele><time>2026-03-29T12:29:38.957Z</time></trkpt><trkpt lat="44.94657" lon="7.2722183"><ele>1141.5</ele><time>2026-03-29T12:29:39.957Z</time></trkpt><trkpt lat="44.9464833" lon="7.2723467"><ele>1140.75</ele><time>2026-03-29T12:29:40.957Z</time></trkpt><trkpt lat="44.9464" lon="7.2724617"><ele>1140.0</ele><time>2026-03-29T12:29:41.957Z</time></trkpt><trkpt lat="44.94633" lon="7.2725717"><ele>1140.0</ele><time>2026-03-29T12:29:42.956Z</time></trkpt><trkpt lat="44.9462667" lon="7.272655"><ele>1140.0</ele><time>2026-03-29T12:29:43.957Z</time></trkpt><trkpt lat="44.9462067" lon="7.2727217"><ele>1140.0</ele><time>2026-03-29T12:29:44.957Z</time></trkpt><trkpt lat="44.94613" lon="7.2727883"><ele>1140.0</ele><time>2026-03-29T12:29:45.957Z</time></trkpt><trkpt lat="44.9460517" lon="7.2728433"><ele>1140.0</ele><time>2026-03-29T12:29:46.957Z</time></trkpt><trkpt lat="44.945965" lon="7.2728933"><ele>1140.0</ele><time>2026-03-29T12:29:47.957Z</time></trkpt><trkpt lat="44.9458833" lon="7.2729467"><ele>1143.0</ele><time>2026-03-29T12:29:48.957Z</time></trkpt><trkpt lat="44.9458117" lon="7.2729883"><ele>1146.0</ele><time>2026-03-29T12:29:49.957Z</time></trkpt><trkpt lat="44.9457433" lon="7.2730183"><ele>1149.0</ele><time>2026-03-29T12:29:50.957Z</time></trkpt><trkpt lat="44.94564" lon="7.2730717"><ele>1152.0</ele><time>2026-03-29T12:29:52.957Z</time></trkpt><trkpt lat="44.9455467" lon="7.2730633"><ele>1155.0</ele><time>2026-03-29T12:29:54.957Z</time></trkpt><trkpt lat="44.94547" lon="7.2729933"><ele>1158.0</ele><time>2026-03-29T12:29:56.957Z</time></trkpt><trkpt lat="44.945365" lon="7.2729017"><ele>1158.0</ele><time>2026-03-29T12:29:58.957Z</time></trkpt><trkpt lat="44.9453033" lon="7.2728617"><ele>1158.0</ele><time>2026-03-29T12:29:59.957Z</time></trkpt><trkpt lat="44.945245" lon="7.2728233"><ele>1158.0</ele><time>2026-03-29T12:30:00.957Z</time></trkpt><trkpt lat="44.945125" lon="7.2727633"><ele>1158.0</ele><time>2026-03-29T12:30:02.957Z</time></trkpt><trkpt lat="44.9450083" lon="7.27269"><ele>1158.0</ele><time>2026-03-29T12:30:04.957Z</time></trkpt><trkpt lat="44.9449517" lon="7.272645"><ele>1158.3333333333333</ele><time>2026-03-29T12:30:05.957Z</time></trkpt><trkpt lat="44.9448967" lon="7.2725917"><ele>1158.6666666666667</ele><time>2026-03-29T12:30:06.957Z</time></trkpt><trkpt lat="44.9448417" lon="7.2725383"><ele>1159.0</ele><time>2026-03-29T12:30:07.957Z</time></trkpt><trkpt lat="44.944785" lon="7.272495"><ele>1159.3333333333335</ele><time>2026-03-29T12:30:08.957Z</time></trkpt><trkpt lat="44.9446667" lon="7.2724317"><ele>1159.6666666666667</ele><time>2026-03-29T12:30:10.957Z</time></trkpt><trkpt lat="44.9445517" lon="7.2724033"><ele>1160.0</ele><time>2026-03-29T12:30:12.957Z</time></trkpt><trkpt lat="44.94443" lon="7.2724083"><ele>1160.0</ele><time>2026-03-29T12:30:14.957Z</time></trkpt><trkpt lat="44.9443667" lon="7.2724283"><ele>1160.0</ele><time>2026-03-29T12:30:15.957Z</time></trkpt><trkpt lat="44.9443017" lon="7.27245"><ele>1160.0</ele><time>2026-03-29T12:30:16.957Z</time></trkpt><trkpt lat="44.944235" lon="7.2724717"><ele>1160.0</ele><time>2026-03-29T12:30:17.957Z</time></trkpt><trkpt lat="44.9441717" lon="7.2724967"><ele>1160.0</ele><time>2026-03-29T12:30:18.956Z</time></trkpt><trkpt lat="44.9441" lon="7.2725383"><ele>1160.0</ele><time>2026-03-29T12:30:19.957Z</time></trkpt><trkpt lat="44.9440317" lon="7.27257"><ele>1160.0</ele><time>2026-03-29T12:30:20.957Z</time></trkpt><trkpt lat="44.94396" lon="7.2726067"><ele>1160.2857142857142</ele><time>2026-03-29T12:30:21.957Z</time></trkpt><trkpt lat="44.9438917" lon="7.2726483"><ele>1160.5714285714287</ele><time>2026-03-29T12:30:22.957Z</time></trkpt><trkpt lat="44.9438283" lon="7.27268"><ele>1160.857142857143</ele><time>2026-03-29T12:30:23.957Z</time></trkpt><trkpt lat="44.9437617" lon="7.2727033"><ele>1161.142857142857</ele><time>2026-03-29T12:30:24.957Z</time></trkpt><trkpt lat="44.9436933" lon="7.2727267"><ele>1161.4285714285716</ele><time>2026-03-29T12:30:25.957Z</time></trkpt><trkpt lat="44.9436233" lon="7.2727417"><ele>1161.7142857142858</ele><time>2026-03-29T12:30:26.957Z</time></trkpt><trkpt lat="44.94356" lon="7.2727483"><ele>1162.0</ele><time>2026-03-29T12:30:27.957Z</time></trkpt><trkpt lat="44.943495" lon="7.2727367"><ele>1162.0</ele><time>2026-03-29T12:30:28.957Z</time></trkpt><trkpt lat="44.9434317" lon="7.2727033"><ele>1162.0</ele><time>2026-03-29T12:30:29.957Z</time></trkpt><trkpt lat="44.9433667" lon="7.2726617"><ele>1162.0</ele><time>2026-03-29T12:30:30.957Z</time></trkpt><trkpt lat="44.943315" lon="7.2726067"><ele>1162.0</ele><time>2026-03-29T12:30:31.957Z</time></trkpt><trkpt lat="44.9432567" lon="7.2725333"><ele>1162.0</ele><time>2026-03-29T12:30:32.957Z</time></trkpt><trkpt lat="44.94319" lon="7.2724633"><ele>1162.0</ele><time>2026-03-29T12:30:33.957Z</time></trkpt><trkpt lat="44.94313" lon="7.2723967"><ele>1162.0</ele><time>2026-03-29T12:30:34.957Z</time></trkpt><trkpt lat="44.9430783" lon="7.2723233"><ele>1164.6666666666665</ele><time>2026-03-29T12:30:35.957Z</time></trkpt><trkpt lat="44.943025" lon="7.2722483"><ele>1167.3333333333333</ele><time>2026-03-29T12:30:36.957Z</time></trkpt><trkpt lat="44.9429717" lon="7.2721767"><ele>1170.0</ele><time>2026-03-29T12:30:37.957Z</time></trkpt><trkpt lat="44.9428467" lon="7.2721433"><ele>1172.6666666666667</ele><time>2026-03-29T12:30:39.957Z</time></trkpt><trkpt lat="44.9427683" lon="7.2721867"><ele>1175.3333333333335</ele><time>2026-03-29T12:30:40.957Z</time></trkpt><trkpt lat="44.9426883" lon="7.272235"><ele>1178.0</ele><time>2026-03-29T12:30:41.956Z</time></trkpt><trkpt lat="44.94261" lon="7.2722533"><ele>1175.5</ele><time>2026-03-29T12:30:42.957Z</time></trkpt><trkpt lat="44.9425317" lon="7.272265"><ele>1173.0</ele><time>2026-03-29T12:30:43.957Z</time></trkpt><trkpt lat="44.9424517" lon="7.2722717"><ele>1170.5</ele><time>2026-03-29T12:30:44.957Z</time></trkpt><trkpt lat="44.942375" lon="7.2722633"><ele>1168.0</ele><time>2026-03-29T12:30:45.957Z</time></trkpt><trkpt lat="44.9422883" lon="7.2722517"><ele>1165.5</ele><time>2026-03-29T12:30:46.956Z</time></trkpt><trkpt lat="44.9422067" lon="7.2722483"><ele>1163.0</ele><time>2026-03-29T12:30:47.957Z</time></trkpt><trkpt lat="44.9421283" lon="7.2722633"><ele>1160.4</ele><time>2026-03-29T12:30:48.956Z</time></trkpt><trkpt lat="44.9420517" lon="7.2722767"><ele>1157.8</ele><time>2026-03-29T12:30:49.957Z</time></trkpt><trkpt lat="44.94198" lon="7.2722967"><ele>1155.2</ele><time>2026-03-29T12:30:50.957Z</time></trkpt><trkpt lat="44.9419117" lon="7.2723117"><ele>1152.6</ele><time>2026-03-29T12:30:51.957Z</time></trkpt><trkpt lat="44.941795" lon="7.2723017"><ele>1150.0</ele><time>2026-03-29T12:30:53.957Z</time></trkpt><trkpt lat="44.9416767" lon="7.2722317"><ele>1150.0</ele><time>2026-03-29T12:30:55.957Z</time></trkpt><trkpt lat="44.9416167" lon="7.2721617"><ele>1150.0</ele><time>2026-03-29T12:30:56.957Z</time></trkpt><trkpt lat="44.9415583" lon="7.2720867"><ele>1150.0</ele><time>2026-03-29T12:30:57.956Z</time></trkpt><trkpt lat="44.9415033" lon="7.2720133"><ele>1150.0</ele><time>2026-03-29T12:30:58.957Z</time></trkpt><trkpt lat="44.9414367" lon="7.2719583"><ele>1150.0</ele><time>2026-03-29T12:30:59.957Z</time></trkpt><trkpt lat="44.9413567" lon="7.2719117"><ele>1150.0</ele><time>2026-03-29T12:31:00.957Z</time></trkpt><trkpt lat="44.94127" lon="7.2718633"><ele>1150.0</ele><time>2026-03-29T12:31:01.957Z</time></trkpt><trkpt lat="44.941185" lon="7.2718017"><ele>1150.0</ele><time>2026-03-29T12:31:02.957Z</time></trkpt><trkpt lat="44.94112" lon="7.271725"><ele>1150.0</ele><time>2026-03-29T12:31:03.957Z</time></trkpt><trkpt lat="44.9410767" lon="7.271635"><ele>1150.0</ele><time>2026-03-29T12:31:04.957Z</time></trkpt><trkpt lat="44.9410467" lon="7.27153"><ele>1150.0</ele><time>2026-03-29T12:31:05.957Z</time></trkpt><trkpt lat="44.9410217" lon="7.2714417"><ele>1150.0</ele><time>2026-03-29T12:31:06.957Z</time></trkpt><trkpt lat="44.9409883" lon="7.2713533"><ele>1149.8333333333333</ele><time>2026-03-29T12:31:07.957Z</time></trkpt><trkpt lat="44.9409133" lon="7.27126"><ele>1149.6666666666665</ele><time>2026-03-29T12:31:09.957Z</time></trkpt><trkpt lat="44.9408483" lon="7.2712367"><ele>1149.5</ele><time>2026-03-29T12:31:11.957Z</time></trkpt><trkpt lat="44.94077" lon="7.2712233"><ele>1149.3333333333333</ele><time>2026-03-29T12:31:14.957Z</time></trkpt><trkpt lat="44.940685" lon="7.27121"><ele>1149.1666666666667</ele><time>2026-03-29T12:31:16.957Z</time></trkpt><trkpt lat="44.94058" lon="7.2711867"><ele>1149.0</ele><time>2026-03-29T12:31:18.957Z</time></trkpt><trkpt lat="44.9405133" lon="7.271165"><ele>1146.6000000000001</ele><time>2026-03-29T12:31:19.957Z</time></trkpt><trkpt lat="44.9404367" lon="7.2711533"><ele>1144.2</ele><time>2026-03-29T12:31:20.957Z</time></trkpt><trkpt lat="44.9403483" lon="7.2711367"><ele>1141.8000000000002</ele><time>2026-03-29T12:31:21.957Z</time></trkpt><trkpt lat="44.940255" lon="7.2711217"><ele>1139.4</ele><time>2026-03-29T12:31:22.957Z</time></trkpt><trkpt lat="44.9401567" lon="7.2711133"><ele>1137.0</ele><time>2026-03-29T12:31:23.957Z</time></trkpt><trkpt lat="44.94005" lon="7.2711083"><ele>1137.0</ele><time>2026-03-29T12:31:24.957Z</time></trkpt><trkpt lat="44.9399383" lon="7.2710983"><ele>1137.0</ele><time>2026-03-29T12:31:25.957Z</time></trkpt><trkpt lat="44.9398367" lon="7.2710733"><ele>1137.0</ele><time>2026-03-29T12:31:26.957Z</time></trkpt><trkpt lat="44.9397583" lon="7.2710567"><ele>1137.0</ele><time>2026-03-29T12:31:27.957Z</time></trkpt><trkpt lat="44.9396767" lon="7.2710317"><ele>1137.0</ele><time>2026-03-29T12:31:28.956Z</time></trkpt><trkpt lat="44.9395967" lon="7.2710017"><ele>1137.0</ele><time>2026-03-29T12:31:29.957Z</time></trkpt><trkpt lat="44.9395233" lon="7.270975"><ele>1137.0</ele><time>2026-03-29T12:31:30.957Z</time></trkpt><trkpt lat="44.939455" lon="7.2709283"><ele>1137.0</ele><time>2026-03-29T12:31:31.957Z</time></trkpt><trkpt lat="44.939395" lon="7.2708583"><ele>1137.0</ele><time>2026-03-29T12:31:32.957Z</time></trkpt><trkpt lat="44.9393383" lon="7.2707533"><ele>1137.0</ele><time>2026-03-29T12:31:33.957Z</time></trkpt><trkpt lat="44.9392817" lon="7.2706333"><ele>1137.0</ele><time>2026-03-29T12:31:34.956Z</time></trkpt><trkpt lat="44.9392217" lon="7.27051"><ele>1138.0</ele><time>2026-03-29T12:31:35.957Z</time></trkpt><trkpt lat="44.9391683" lon="7.2703683"><ele>1139.0</ele><time>2026-03-29T12:31:36.957Z</time></trkpt><trkpt lat="44.9391217" lon="7.27023"><ele>1140.0</ele><time>2026-03-29T12:31:37.957Z</time></trkpt><trkpt lat="44.9390783" lon="7.2701333"><ele>1141.0</ele><time>2026-03-29T12:31:38.956Z</time></trkpt><trkpt lat="44.9390183" lon="7.27002"><ele>1142.0</ele><time>2026-03-29T12:31:39.957Z</time></trkpt><trkpt lat="44.938935" lon="7.269925"><ele>1142.0</ele><time>2026-03-29T12:31:40.957Z</time></trkpt><trkpt lat="44.9388333" lon="7.2699"><ele>1142.0</ele><time>2026-03-29T12:31:41.957Z</time></trkpt><trkpt lat="44.9387417" lon="7.2699067"><ele>1142.0</ele><time>2026-03-29T12:31:42.957Z</time></trkpt><trkpt lat="44.93864" lon="7.269935"><ele>1142.0</ele><time>2026-03-29T12:31:43.957Z</time></trkpt><trkpt lat="44.938545" lon="7.26999"><ele>1142.0</ele><time>2026-03-29T12:31:44.957Z</time></trkpt><trkpt lat="44.9384583" lon="7.2700367"><ele>1143.1666666666667</ele><time>2026-03-29T12:31:45.957Z</time></trkpt><trkpt lat="44.93838" lon="7.2700967"><ele>1144.3333333333335</ele><time>2026-03-29T12:31:46.956Z</time></trkpt><trkpt lat="44.9382967" lon="7.2701533"><ele>1145.5</ele><time>2026-03-29T12:31:47.957Z</time></trkpt><trkpt lat="44.9382183" lon="7.270215"><ele>1146.6666666666667</ele><time>2026-03-29T12:31:48.957Z</time></trkpt><trkpt lat="44.93815" lon="7.2702833"><ele>1147.8333333333333</ele><time>2026-03-29T12:31:49.957Z</time></trkpt><trkpt lat="44.9380817" lon="7.2703483"><ele>1149.0</ele><time>2026-03-29T12:31:50.956Z</time></trkpt><trkpt lat="44.9380083" lon="7.2704033"><ele>1149.0</ele><time>2026-03-29T12:31:51.957Z</time></trkpt><trkpt lat="44.9379367" lon="7.2704417"><ele>1149.0</ele><time>2026-03-29T12:31:52.957Z</time></trkpt><trkpt lat="44.9378567" lon="7.2704617"><ele>1149.0</ele><time>2026-03-29T12:31:53.957Z</time></trkpt><trkpt lat="44.9377867" lon="7.2704733"><ele>1149.0</ele><time>2026-03-29T12:31:54.957Z</time></trkpt><trkpt lat="44.9377167" lon="7.2704767"><ele>1149.0</ele><time>2026-03-29T12:31:55.956Z</time></trkpt><trkpt lat="44.9376433" lon="7.2704767"><ele>1149.0</ele><time>2026-03-29T12:31:56.957Z</time></trkpt><trkpt lat="44.9375683" lon="7.270465"><ele>1149.0</ele><time>2026-03-29T12:31:57.957Z</time></trkpt><trkpt lat="44.9374867" lon="7.27044"><ele>1148.6666666666667</ele><time>2026-03-29T12:31:58.957Z</time></trkpt><trkpt lat="44.937405" lon="7.2703967"><ele>1148.3333333333333</ele><time>2026-03-29T12:31:59.957Z</time></trkpt><trkpt lat="44.9373217" lon="7.2703467"><ele>1148.0</ele><time>2026-03-29T12:32:00.957Z</time></trkpt><trkpt lat="44.9372417" lon="7.27029"><ele>1147.6666666666665</ele><time>2026-03-29T12:32:01.956Z</time></trkpt><trkpt lat="44.93718" lon="7.2702317"><ele>1147.3333333333333</ele><time>2026-03-29T12:32:02.957Z</time></trkpt><trkpt lat="44.9371283" lon="7.2701617"><ele>1147.0</ele><time>2026-03-29T12:32:03.957Z</time></trkpt><trkpt lat="44.93707" lon="7.2700983"><ele>1147.0</ele><time>2026-03-29T12:32:04.957Z</time></trkpt><trkpt lat="44.9370117" lon="7.27004"><ele>1147.0</ele><time>2026-03-29T12:32:05.957Z</time></trkpt><trkpt lat="44.9369117" lon="7.269905"><ele>1147.0</ele><time>2026-03-29T12:32:07.957Z</time></trkpt><trkpt lat="44.936865" lon="7.26981"><ele>1147.0</ele><time>2026-03-29T12:32:08.957Z</time></trkpt><trkpt lat="44.936835" lon="7.2697167"><ele>1147.0</ele><time>2026-03-29T12:32:09.957Z</time></trkpt><trkpt lat="44.93681" lon="7.2696267"><ele>1147.0</ele><time>2026-03-29T12:32:10.957Z</time></trkpt><trkpt lat="44.936785" lon="7.26954"><ele>1147.4</ele><time>2026-03-29T12:32:11.957Z</time></trkpt><trkpt lat="44.9367533" lon="7.2694617"><ele>1147.8000000000002</ele><time>2026-03-29T12:32:12.957Z</time></trkpt><trkpt lat="44.93665" lon="7.2693817"><ele>1148.2</ele><time>2026-03-29T12:32:14.956Z</time></trkpt><trkpt lat="44.9365817" lon="7.2693667"><ele>1148.6000000000001</ele><time>2026-03-29T12:32:15.957Z</time></trkpt><trkpt lat="44.9364667" lon="7.2694067"><ele>1149.0</ele><time>2026-03-29T12:32:17.957Z</time></trkpt><trkpt lat="44.9363817" lon="7.2695333"><ele>1146.142857142857</ele><time>2026-03-29T12:32:19.957Z</time></trkpt><trkpt lat="44.9363517" lon="7.2696233"><ele>1143.2857142857142</ele><time>2026-03-29T12:32:20.957Z</time></trkpt><trkpt lat="44.9363267" lon="7.26972"><ele>1140.4285714285713</ele><time>2026-03-29T12:32:21.957Z</time></trkpt><trkpt lat="44.9363033" lon="7.2698083"><ele>1137.5714285714284</ele><time>2026-03-29T12:32:22.957Z</time></trkpt><trkpt lat="44.9362733" lon="7.2699033"><ele>1134.7142857142856</ele><time>2026-03-29T12:32:23.957Z</time></trkpt><trkpt lat="44.9362367" lon="7.270005"><ele>1131.857142857143</ele><time>2026-03-29T12:32:24.957Z</time></trkpt><trkpt lat="44.9361917" lon="7.2701033"><ele>1129.0</ele><time>2026-03-29T12:32:25.957Z</time></trkpt><trkpt lat="44.9361333" lon="7.2701833"><ele>1129.0</ele><time>2026-03-29T12:32:26.957Z</time></trkpt><trkpt lat="44.93607" lon="7.2702433"><ele>1129.0</ele><time>2026-03-29T12:32:27.957Z</time></trkpt><trkpt lat="44.935995" lon="7.270285"><ele>1129.0</ele><time>2026-03-29T12:32:28.957Z</time></trkpt><trkpt lat="44.9359183" lon="7.2703"><ele>1129.0</ele><time>2026-03-29T12:32:29.957Z</time></trkpt><trkpt lat="44.9358433" lon="7.270315"><ele>1129.0</ele><time>2026-03-29T12:32:30.957Z</time></trkpt><trkpt lat="44.9357683" lon="7.270335"><ele>1129.0</ele><time>2026-03-29T12:32:31.957Z</time></trkpt><trkpt lat="44.93571" lon="7.27037"><ele>1126.1666666666665</ele><time>2026-03-29T12:32:32.957Z</time></trkpt><trkpt lat="44.9356567" lon="7.270425"><ele>1123.3333333333333</ele><time>2026-03-29T12:32:33.957Z</time></trkpt><trkpt lat="44.935615" lon="7.2705"><ele>1120.5</ele><time>2026-03-29T12:32:34.956Z</time></trkpt><trkpt lat="44.9355733" lon="7.2705767"><ele>1117.6666666666667</ele><time>2026-03-29T12:32:35.957Z</time></trkpt><trkpt lat="44.9355417" lon="7.2707517"><ele>1114.8333333333335</ele><time>2026-03-29T12:32:37.957Z</time></trkpt><trkpt lat="44.935555" lon="7.2708467"><ele>1112.0</ele><time>2026-03-29T12:32:38.957Z</time></trkpt><trkpt lat="44.935585" lon="7.2709367"><ele>1111.8</ele><time>2026-03-29T12:32:39.957Z</time></trkpt><trkpt lat="44.9356217" lon="7.2710117"><ele>1111.6</ele><time>2026-03-29T12:32:40.957Z</time></trkpt><trkpt lat="44.9356733" lon="7.27107"><ele>1111.3999999999999</ele><time>2026-03-29T12:32:41.957Z</time></trkpt><trkpt lat="44.9357767" lon="7.27117"><ele>1111.2</ele><time>2026-03-29T12:32:43.957Z</time></trkpt><trkpt lat="44.9358917" lon="7.2712467"><ele>1111.0</ele><time>2026-03-29T12:32:45.957Z</time></trkpt><trkpt lat="44.93596" lon="7.2712883"><ele>1111.3333333333333</ele><time>2026-03-29T12:32:46.957Z</time></trkpt><trkpt lat="44.9360317" lon="7.2713333"><ele>1111.6666666666665</ele><time>2026-03-29T12:32:47.957Z</time></trkpt><trkpt lat="44.936105" lon="7.2713883"><ele>1112.0</ele><time>2026-03-29T12:32:48.957Z</time></trkpt><trkpt lat="44.9361633" lon="7.2714467"><ele>1112.3333333333333</ele><time>2026-03-29T12:32:49.957Z</time></trkpt><trkpt lat="44.9362117" lon="7.27151"><ele>1112.6666666666667</ele><time>2026-03-29T12:32:50.957Z</time></trkpt><trkpt lat="44.9362933" lon="7.27163"><ele>1113.0</ele><time>2026-03-29T12:32:52.957Z</time></trkpt><trkpt lat="44.93631" lon="7.2717233"><ele>1113.0</ele><time>2026-03-29T12:32:54.957Z</time></trkpt><trkpt lat="44.936225" lon="7.2718167"><ele>1113.0</ele><time>2026-03-29T12:32:57.957Z</time></trkpt><trkpt lat="44.9361483" lon="7.271875"><ele>1113.0</ele><time>2026-03-29T12:32:59.957Z</time></trkpt><trkpt lat="44.9360667" lon="7.2719567"><ele>1113.0</ele><time>2026-03-29T12:33:01.957Z</time></trkpt><trkpt lat="44.936005" lon="7.2720917"><ele>1113.0</ele><time>2026-03-29T12:33:03.957Z</time></trkpt><trkpt lat="44.9359617" lon="7.2721867"><ele>1113.0</ele><time>2026-03-29T12:33:04.957Z</time></trkpt><trkpt lat="44.9359217" lon="7.27227"><ele>1113.0</ele><time>2026-03-29T12:33:05.957Z</time></trkpt><trkpt lat="44.9358583" lon="7.27235"><ele>1113.0</ele><time>2026-03-29T12:33:06.957Z</time></trkpt><trkpt lat="44.9357867" lon="7.2724183"><ele>1113.0</ele><time>2026-03-29T12:33:07.957Z</time></trkpt><trkpt lat="44.9357117" lon="7.27247"><ele>1113.0</ele><time>2026-03-29T12:33:08.957Z</time></trkpt><trkpt lat="44.935645" lon="7.272525"><ele>1113.0</ele><time>2026-03-29T12:33:09.957Z</time></trkpt><trkpt lat="44.9355683" lon="7.2726017"><ele>1109.7142857142858</ele><time>2026-03-29T12:33:10.957Z</time></trkpt><trkpt lat="44.93552" lon="7.272675"><ele>1106.4285714285716</ele><time>2026-03-29T12:33:11.957Z</time></trkpt><trkpt lat="44.935465" lon="7.272755"><ele>1103.142857142857</ele><time>2026-03-29T12:33:12.957Z</time></trkpt><trkpt lat="44.9354133" lon="7.2728333"><ele>1099.857142857143</ele><time>2026-03-29T12:33:13.957Z</time></trkpt><trkpt lat="44.9353633" lon="7.2729267"><ele>1096.5714285714287</ele><time>2026-03-29T12:33:14.957Z</time></trkpt><trkpt lat="44.9353183" lon="7.2730033"><ele>1093.2857142857142</ele><time>2026-03-29T12:33:15.957Z</time></trkpt><trkpt lat="44.935275" lon="7.27308"><ele>1090.0</ele><time>2026-03-29T12:33:16.956Z</time></trkpt><trkpt lat="44.93523" lon="7.27315"><ele>1087.8333333333333</ele><time>2026-03-29T12:33:17.957Z</time></trkpt><trkpt lat="44.9351733" lon="7.27322"><ele>1085.6666666666665</ele><time>2026-03-29T12:33:18.957Z</time></trkpt><trkpt lat="44.93511" lon="7.2732783"><ele>1083.5</ele><time>2026-03-29T12:33:19.957Z</time></trkpt><trkpt lat="44.935045" lon="7.2733233"><ele>1081.3333333333333</ele><time>2026-03-29T12:33:20.956Z</time></trkpt><trkpt lat="44.9349583" lon="7.27336"><ele>1079.1666666666667</ele><time>2026-03-29T12:33:21.957Z</time></trkpt><trkpt lat="44.9348683" lon="7.2733983"><ele>1077.0</ele><time>2026-03-29T12:33:22.957Z</time></trkpt><trkpt lat="44.9347833" lon="7.27342"><ele>1075.8</ele><time>2026-03-29T12:33:23.957Z</time></trkpt><trkpt lat="44.934685" lon="7.27344"><ele>1074.6</ele><time>2026-03-29T12:33:24.957Z</time></trkpt><trkpt lat="44.9345883" lon="7.2734633"><ele>1073.3999999999999</ele><time>2026-03-29T12:33:25.957Z</time></trkpt><trkpt lat="44.9345" lon="7.27349"><ele>1072.2</ele><time>2026-03-29T12:33:26.957Z</time></trkpt><trkpt lat="44.9344183" lon="7.273525"><ele>1071.0</ele><time>2026-03-29T12:33:27.957Z</time></trkpt><trkpt lat="44.9343383" lon="7.27356"><ele>1071.0</ele><time>2026-03-29T12:33:28.957Z</time></trkpt><trkpt lat="44.93425" lon="7.273625"><ele>1071.0</ele><time>2026-03-29T12:33:29.957Z</time></trkpt><trkpt lat="44.9341667" lon="7.2736883"><ele>1071.0</ele><time>2026-03-29T12:33:30.957Z</time></trkpt><trkpt lat="44.934085" lon="7.2737533"><ele>1071.0</ele><time>2026-03-29T12:33:31.957Z</time></trkpt><trkpt lat="44.93401" lon="7.2738317"><ele>1071.0</ele><time>2026-03-29T12:33:32.957Z</time></trkpt><trkpt lat="44.9339283" lon="7.2739083"><ele>1068.0</ele><time>2026-03-29T12:33:33.957Z</time></trkpt><trkpt lat="44.933845" lon="7.2739767"><ele>1065.0</ele><time>2026-03-29T12:33:34.957Z</time></trkpt><trkpt lat="44.9337567" lon="7.274055"><ele>1062.0</ele><time>2026-03-29T12:33:35.957Z</time></trkpt><trkpt lat="44.933665" lon="7.27412"><ele>1059.0</ele><time>2026-03-29T12:33:36.957Z</time></trkpt><trkpt lat="44.933565" lon="7.2741833"><ele>1056.0</ele><time>2026-03-29T12:33:37.957Z</time></trkpt><trkpt lat="44.9334683" lon="7.2742383"><ele>1057.0</ele><time>2026-03-29T12:33:38.957Z</time></trkpt><trkpt lat="44.93337" lon="7.2742783"><ele>1058.0</ele><time>2026-03-29T12:33:39.957Z</time></trkpt><trkpt lat="44.9332867" lon="7.2743133"><ele>1059.0</ele><time>2026-03-29T12:33:40.957Z</time></trkpt><trkpt lat="44.9332067" lon="7.27435"><ele>1060.0</ele><time>2026-03-29T12:33:41.957Z</time></trkpt><trkpt lat="44.93313" lon="7.2743917"><ele>1061.0</ele><time>2026-03-29T12:33:42.957Z</time></trkpt><trkpt lat="44.9330517" lon="7.2744233"><ele>1062.0</ele><time>2026-03-29T12:33:43.957Z</time></trkpt><trkpt lat="44.932975" lon="7.2744417"><ele>1062.0</ele><time>2026-03-29T12:33:44.957Z</time></trkpt><trkpt lat="44.93291" lon="7.274435"><ele>1062.0</ele><time>2026-03-29T12:33:45.957Z</time></trkpt><trkpt lat="44.9327933" lon="7.2744"><ele>1062.0</ele><time>2026-03-29T12:33:47.956Z</time></trkpt><trkpt lat="44.9327333" lon="7.27435"><ele>1062.0</ele><time>2026-03-29T12:33:48.957Z</time></trkpt><trkpt lat="44.932675" lon="7.2742733"><ele>1062.0</ele><time>2026-03-29T12:33:49.957Z</time></trkpt><trkpt lat="44.9326267" lon="7.274195"><ele>1062.0</ele><time>2026-03-29T12:33:50.957Z</time></trkpt><trkpt lat="44.932565" lon="7.2740483"><ele>1060.6</ele><time>2026-03-29T12:33:52.956Z</time></trkpt><trkpt lat="44.93253" lon="7.2739717"><ele>1059.2</ele><time>2026-03-29T12:33:53.957Z</time></trkpt><trkpt lat="44.9324783" lon="7.273825"><ele>1057.8</ele><time>2026-03-29T12:33:55.957Z</time></trkpt><trkpt lat="44.9324133" lon="7.2737267"><ele>1056.4</ele><time>2026-03-29T12:33:57.957Z</time></trkpt><trkpt lat="44.9323333" lon="7.2736933"><ele>1055.0</ele><time>2026-03-29T12:33:59.957Z</time></trkpt><trkpt lat="44.932235" lon="7.273755"><ele>1055.0</ele><time>2026-03-29T12:34:01.957Z</time></trkpt><trkpt lat="44.932175" lon="7.2738133"><ele>1055.0</ele><time>2026-03-29T12:34:02.957Z</time></trkpt><trkpt lat="44.932095" lon="7.2739017"><ele>1055.0</ele><time>2026-03-29T12:34:03.957Z</time></trkpt><trkpt lat="44.9320217" lon="7.2739767"><ele>1055.0</ele><time>2026-03-29T12:34:04.957Z</time></trkpt><trkpt lat="44.9319433" lon="7.2740467"><ele>1055.0</ele><time>2026-03-29T12:34:05.956Z</time></trkpt><trkpt lat="44.9318717" lon="7.274105"><ele>1055.0</ele><time>2026-03-29T12:34:06.957Z</time></trkpt><trkpt lat="44.9317933" lon="7.2741683"><ele>1054.1666666666667</ele><time>2026-03-29T12:34:07.957Z</time></trkpt><trkpt lat="44.9317283" lon="7.27423"><ele>1053.3333333333335</ele><time>2026-03-29T12:34:08.957Z</time></trkpt><trkpt lat="44.9316617" lon="7.2742917"><ele>1052.5</ele><time>2026-03-29T12:34:09.957Z</time></trkpt><trkpt lat="44.9316117" lon="7.2743617"><ele>1051.6666666666667</ele><time>2026-03-29T12:34:10.957Z</time></trkpt><trkpt lat="44.9315667" lon="7.2744417"><ele>1050.8333333333333</ele><time>2026-03-29T12:34:11.957Z</time></trkpt><trkpt lat="44.9315233" lon="7.2745267"><ele>1050.0</ele><time>2026-03-29T12:34:12.956Z</time></trkpt><trkpt lat="44.9314717" lon="7.2746067"><ele>1047.4</ele><time>2026-03-29T12:34:13.957Z</time></trkpt><trkpt lat="44.9314067" lon="7.2746767"><ele>1044.8</ele><time>2026-03-29T12:34:14.957Z</time></trkpt><trkpt lat="44.931345" lon="7.27473"><ele>1042.2</ele><time>2026-03-29T12:34:15.957Z</time></trkpt><trkpt lat="44.93124" lon="7.274775"><ele>1039.6</ele><time>2026-03-29T12:34:17.957Z</time></trkpt><trkpt lat="44.931105" lon="7.2747667"><ele>1037.0</ele><time>2026-03-29T12:34:19.957Z</time></trkpt><trkpt lat="44.931025" lon="7.2747433"><ele>1037.0</ele><time>2026-03-29T12:34:20.957Z</time></trkpt><trkpt lat="44.9309583" lon="7.2747283"><ele>1037.0</ele><time>2026-03-29T12:34:21.956Z</time></trkpt><trkpt lat="44.930865" lon="7.2747433"><ele>1037.0</ele><time>2026-03-29T12:34:22.957Z</time></trkpt><trkpt lat="44.9307617" lon="7.2747733"><ele>1037.0</ele><time>2026-03-29T12:34:23.956Z</time></trkpt><trkpt lat="44.9306317" lon="7.2747967"><ele>1037.0</ele><time>2026-03-29T12:34:24.957Z</time></trkpt><trkpt lat="44.9305133" lon="7.2748283"><ele>1033.4</ele><time>2026-03-29T12:34:25.957Z</time></trkpt><trkpt lat="44.9304067" lon="7.274845"><ele>1029.8000000000002</ele><time>2026-03-29T12:34:26.957Z</time></trkpt><trkpt lat="44.9303117" lon="7.2748667"><ele>1026.2</ele><time>2026-03-29T12:34:27.957Z</time></trkpt><trkpt lat="44.9302217" lon="7.2749"><ele>1022.6</ele><time>2026-03-29T12:34:28.957Z</time></trkpt><trkpt lat="44.9301383" lon="7.2749417"><ele>1019.0</ele><time>2026-03-29T12:34:29.957Z</time></trkpt><trkpt lat="44.9300633" lon="7.2749667"><ele>1019.0000000000001</ele><time>2026-03-29T12:34:30.957Z</time></trkpt><trkpt lat="44.929985" lon="7.2749767"><ele>1019.0</ele><time>2026-03-29T12:34:31.957Z</time></trkpt><trkpt lat="44.92992" lon="7.2749583"><ele>1019.0</ele><time>2026-03-29T12:34:32.957Z</time></trkpt><trkpt lat="44.9298633" lon="7.2749167"><ele>1019.0</ele><time>2026-03-29T12:34:33.957Z</time></trkpt><trkpt lat="44.929805" lon="7.2747817"><ele>1019.0000000000001</ele><time>2026-03-29T12:34:35.957Z</time></trkpt><trkpt lat="44.9297883" lon="7.2746683"><ele>1019.0</ele><time>2026-03-29T12:34:36.957Z</time></trkpt><trkpt lat="44.9297783" lon="7.2745567"><ele>1019.0000000000001</ele><time>2026-03-29T12:34:37.957Z</time></trkpt><trkpt lat="44.92978" lon="7.27446"><ele>1019.0</ele><time>2026-03-29T12:34:38.956Z</time></trkpt><trkpt lat="44.9297717" lon="7.2743567"><ele>1019.0</ele><time>2026-03-29T12:34:39.957Z</time></trkpt><trkpt lat="44.9297583" lon="7.27426"><ele>1019.0</ele><time>2026-03-29T12:34:40.957Z</time></trkpt><trkpt lat="44.9297483" lon="7.274145"><ele>1019.0000000000001</ele><time>2026-03-29T12:34:41.957Z</time></trkpt><trkpt lat="44.92975" lon="7.2740283"><ele>1019.0</ele><time>2026-03-29T12:34:42.957Z</time></trkpt><trkpt lat="44.9297433" lon="7.273915"><ele>1017.8333333333334</ele><time>2026-03-29T12:34:43.957Z</time></trkpt><trkpt lat="44.92974" lon="7.273815"><ele>1016.6666666666667</ele><time>2026-03-29T12:34:44.957Z</time></trkpt><trkpt lat="44.929725" lon="7.273715"><ele>1015.5</ele><time>2026-03-29T12:34:45.957Z</time></trkpt><trkpt lat="44.9296983" lon="7.2736083"><ele>1014.3333333333333</ele><time>2026-03-29T12:34:46.957Z</time></trkpt><trkpt lat="44.929655" lon="7.27351"><ele>1013.1666666666666</ele><time>2026-03-29T12:34:47.957Z</time></trkpt><trkpt lat="44.929595" lon="7.2734167"><ele>1012.0</ele><time>2026-03-29T12:34:48.957Z</time></trkpt><trkpt lat="44.9295283" lon="7.27332"><ele>1012.0</ele><time>2026-03-29T12:34:49.957Z</time></trkpt><trkpt lat="44.9294417" lon="7.2732033"><ele>1012.0</ele><time>2026-03-29T12:34:50.956Z</time></trkpt><trkpt lat="44.9293633" lon="7.2730917"><ele>1012.0</ele><time>2026-03-29T12:34:51.957Z</time></trkpt><trkpt lat="44.9293" lon="7.2729917"><ele>1012.0</ele><time>2026-03-29T12:34:52.957Z</time></trkpt><trkpt lat="44.9292417" lon="7.27288"><ele>1012.0</ele><time>2026-03-29T12:34:53.957Z</time></trkpt><trkpt lat="44.9291833" lon="7.272775"><ele>1011.3333333333333</ele><time>2026-03-29T12:34:54.957Z</time></trkpt><trkpt lat="44.9291283" lon="7.2726833"><ele>1010.6666666666666</ele><time>2026-03-29T12:34:55.957Z</time></trkpt><trkpt lat="44.929075" lon="7.272595"><ele>1010.0</ele><time>2026-03-29T12:34:56.957Z</time></trkpt><trkpt lat="44.9290217" lon="7.2725083"><ele>1009.3333333333333</ele><time>2026-03-29T12:34:57.957Z</time></trkpt><trkpt lat="44.9289767" lon="7.27242"><ele>1008.6666666666666</ele><time>2026-03-29T12:34:58.957Z</time></trkpt><trkpt lat="44.9289283" lon="7.272345"><ele>1008.0</ele><time>2026-03-29T12:34:59.957Z</time></trkpt><trkpt lat="44.9288767" lon="7.27229"><ele>1008.0</ele><time>2026-03-29T12:35:00.957Z</time></trkpt><trkpt lat="44.9288167" lon="7.27226"><ele>1008.0</ele><time>2026-03-29T12:35:01.957Z</time></trkpt><trkpt lat="44.9287467" lon="7.27227"><ele>1008.0</ele><time>2026-03-29T12:35:02.958Z</time></trkpt><trkpt lat="44.9286833" lon="7.272295"><ele>1008.0</ele><time>2026-03-29T12:35:03.958Z</time></trkpt><trkpt lat="44.92858" lon="7.27241"><ele>1008.0</ele><time>2026-03-29T12:35:05.958Z</time></trkpt><trkpt lat="44.9285383" lon="7.2725067"><ele>1008.0</ele><time>2026-03-29T12:35:06.958Z</time></trkpt><trkpt lat="44.9285033" lon="7.2726133"><ele>1008.0</ele><time>2026-03-29T12:35:07.957Z</time></trkpt><trkpt lat="44.9284583" lon="7.272715"><ele>1008.0</ele><time>2026-03-29T12:35:08.958Z</time></trkpt><trkpt lat="44.9284133" lon="7.2728117"><ele>1008.0</ele><time>2026-03-29T12:35:09.958Z</time></trkpt><trkpt lat="44.9283767" lon="7.2729067"><ele>1008.0</ele><time>2026-03-29T12:35:10.958Z</time></trkpt><trkpt lat="44.928325" lon="7.273065"><ele>1008.0</ele><time>2026-03-29T12:35:12.958Z</time></trkpt><trkpt lat="44.9282483" lon="7.2732067"><ele>1009.1666666666666</ele><time>2026-03-29T12:35:14.958Z</time></trkpt><trkpt lat="44.9281717" lon="7.273225"><ele>1010.3333333333333</ele><time>2026-03-29T12:35:15.958Z</time></trkpt><trkpt lat="44.9280967" lon="7.27322"><ele>1011.5</ele><time>2026-03-29T12:35:16.958Z</time></trkpt><trkpt lat="44.9280167" lon="7.2732017"><ele>1012.6666666666666</ele><time>2026-03-29T12:35:17.958Z</time></trkpt><trkpt lat="44.92793" lon="7.2731733"><ele>1013.8333333333333</ele><time>2026-03-29T12:35:18.958Z</time></trkpt><trkpt lat="44.9278217" lon="7.273125"><ele>1015.0</ele><time>2026-03-29T12:35:19.958Z</time></trkpt><trkpt lat="44.9277317" lon="7.273075"><ele>1011.6</ele><time>2026-03-29T12:35:20.958Z</time></trkpt><trkpt lat="44.92764" lon="7.2730167"><ele>1008.2</ele><time>2026-03-29T12:35:21.958Z</time></trkpt><trkpt lat="44.92755" lon="7.2729567"><ele>1004.8</ele><time>2026-03-29T12:35:22.958Z</time></trkpt><trkpt lat="44.92747" lon="7.2728917"><ele>1001.4</ele><time>2026-03-29T12:35:23.958Z</time></trkpt><trkpt lat="44.9273933" lon="7.2728183"><ele>998.0</ele><time>2026-03-29T12:35:24.958Z</time></trkpt><trkpt lat="44.9273133" lon="7.2727483"><ele>996.3333333333334</ele><time>2026-03-29T12:35:25.958Z</time></trkpt><trkpt lat="44.9272333" lon="7.2726883"><ele>994.6666666666667</ele><time>2026-03-29T12:35:26.958Z</time></trkpt><trkpt lat="44.9271517" lon="7.2726483"><ele>993.0</ele><time>2026-03-29T12:35:27.958Z</time></trkpt><trkpt lat="44.9270717" lon="7.27262"><ele>991.3333333333333</ele><time>2026-03-29T12:35:28.958Z</time></trkpt><trkpt lat="44.926995" lon="7.272605"><ele>989.6666666666666</ele><time>2026-03-29T12:35:29.958Z</time></trkpt><trkpt lat="44.926905" lon="7.2726183"><ele>988.0</ele><time>2026-03-29T12:35:30.958Z</time></trkpt><trkpt lat="44.9268183" lon="7.2726517"><ele>987.9999999999999</ele><time>2026-03-29T12:35:31.958Z</time></trkpt><trkpt lat="44.9267383" lon="7.2726983"><ele>988.0</ele><time>2026-03-29T12:35:32.958Z</time></trkpt><trkpt lat="44.9266683" lon="7.2727483"><ele>988.0</ele><time>2026-03-29T12:35:33.958Z</time></trkpt><trkpt lat="44.9265967" lon="7.2728133"><ele>988.0</ele><time>2026-03-29T12:35:34.958Z</time></trkpt><trkpt lat="44.92652" lon="7.2728933"><ele>987.9999999999999</ele><time>2026-03-29T12:35:35.958Z</time></trkpt><trkpt lat="44.9264533" lon="7.2729733"><ele>988.0</ele><time>2026-03-29T12:35:36.958Z</time></trkpt><trkpt lat="44.9263933" lon="7.27306"><ele>989.6666666666666</ele><time>2026-03-29T12:35:37.958Z</time></trkpt><trkpt lat="44.9263483" lon="7.2731567"><ele>991.3333333333333</ele><time>2026-03-29T12:35:38.958Z</time></trkpt><trkpt lat="44.926315" lon="7.27327"><ele>993.0</ele><time>2026-03-29T12:35:39.958Z</time></trkpt><trkpt lat="44.9262833" lon="7.2733833"><ele>994.6666666666667</ele><time>2026-03-29T12:35:40.958Z</time></trkpt><trkpt lat="44.9262467" lon="7.2735033"><ele>996.3333333333334</ele><time>2026-03-29T12:35:41.958Z</time></trkpt><trkpt lat="44.9261983" lon="7.273625"><ele>998.0</ele><time>2026-03-29T12:35:42.958Z</time></trkpt><trkpt lat="44.926145" lon="7.2737467"><ele>998.0000000000001</ele><time>2026-03-29T12:35:43.958Z</time></trkpt><trkpt lat="44.9261067" lon="7.2738583"><ele>998.0</ele><time>2026-03-29T12:35:44.958Z</time></trkpt><trkpt lat="44.9260667" lon="7.2739617"><ele>998.0</ele><time>2026-03-29T12:35:45.958Z</time></trkpt><trkpt lat="44.92603" lon="7.27406"><ele>998.0</ele><time>2026-03-29T12:35:46.958Z</time></trkpt><trkpt lat="44.9259783" lon="7.2741783"><ele>998.0000000000001</ele><time>2026-03-29T12:35:47.958Z</time></trkpt><trkpt lat="44.92594" lon="7.2742817"><ele>998.0</ele><time>2026-03-29T12:35:48.958Z</time></trkpt><trkpt lat="44.9258983" lon="7.2743867"><ele>999.2857142857144</ele><time>2026-03-29T12:35:49.958Z</time></trkpt><trkpt lat="44.9258683" lon="7.274485"><ele>1000.5714285714287</ele><time>2026-03-29T12:35:50.958Z</time></trkpt><trkpt lat="44.9258433" lon="7.2745833"><ele>1001.8571428571429</ele><time>2026-03-29T12:35:51.958Z</time></trkpt><trkpt lat="44.925835" lon="7.2746767"><ele>1003.1428571428572</ele><time>2026-03-29T12:35:52.958Z</time></trkpt><trkpt lat="44.9258383" lon="7.2747717"><ele>1004.4285714285716</ele><time>2026-03-29T12:35:53.958Z</time></trkpt><trkpt lat="44.92584" lon="7.27488"><ele>1005.7142857142857</ele><time>2026-03-29T12:35:54.958Z</time></trkpt><trkpt lat="44.9258633" lon="7.27497"><ele>1007.0</ele><time>2026-03-29T12:35:55.958Z</time></trkpt><trkpt lat="44.9259017" lon="7.27506"><ele>1007.0000000000001</ele><time>2026-03-29T12:35:56.958Z</time></trkpt><trkpt lat="44.925925" lon="7.275145"><ele>1007.0</ele><time>2026-03-29T12:35:57.958Z</time></trkpt><trkpt lat="44.9259867" lon="7.275205"><ele>1007.0</ele><time>2026-03-29T12:35:58.958Z</time></trkpt><trkpt lat="44.9260467" lon="7.2752467"><ele>1007.0</ele><time>2026-03-29T12:35:59.958Z</time></trkpt><trkpt lat="44.9261083" lon="7.275285"><ele>1007.0000000000001</ele><time>2026-03-29T12:36:00.958Z</time></trkpt><trkpt lat="44.9262283" lon="7.2753583"><ele>1007.0</ele><time>2026-03-29T12:36:02.958Z</time></trkpt><trkpt lat="44.9263317" lon="7.275455"><ele>1007.0000000000001</ele><time>2026-03-29T12:36:04.958Z</time></trkpt><trkpt lat="44.9263883" lon="7.27554"><ele>1007.0</ele><time>2026-03-29T12:36:05.958Z</time></trkpt><trkpt lat="44.92643" lon="7.27563"><ele>1007.0</ele><time>2026-03-29T12:36:06.958Z</time></trkpt><trkpt lat="44.926455" lon="7.2757217"><ele>1007.0</ele><time>2026-03-29T12:36:07.958Z</time></trkpt><trkpt lat="44.9264817" lon="7.275815"><ele>1007.0000000000001</ele><time>2026-03-29T12:36:08.958Z</time></trkpt><trkpt lat="44.9265017" lon="7.2759"><ele>1007.0</ele><time>2026-03-29T12:36:09.958Z</time></trkpt><trkpt lat="44.926505" lon="7.276065"><ele>1003.4000000000001</ele><time>2026-03-29T12:36:11.958Z</time></trkpt><trkpt lat="44.9264167" lon="7.2761817"><ele>999.8000000000001</ele><time>2026-03-29T12:36:13.958Z</time></trkpt><trkpt lat="44.9263583" lon="7.276225"><ele>996.2</ele><time>2026-03-29T12:36:14.958Z</time></trkpt><trkpt lat="44.9262883" lon="7.2762683"><ele>992.6</ele><time>2026-03-29T12:36:15.958Z</time></trkpt><trkpt lat="44.9261983" lon="7.2763267"><ele>989.0</ele><time>2026-03-29T12:36:16.958Z</time></trkpt><trkpt lat="44.92611" lon="7.2763833"><ele>988.2</ele><time>2026-03-29T12:36:17.958Z</time></trkpt><trkpt lat="44.926015" lon="7.276455"><ele>987.4000000000001</ele><time>2026-03-29T12:36:18.958Z</time></trkpt><trkpt lat="44.9259283" lon="7.2765217"><ele>986.6</ele><time>2026-03-29T12:36:19.958Z</time></trkpt><trkpt lat="44.9258533" lon="7.2765933"><ele>985.8</ele><time>2026-03-29T12:36:20.958Z</time></trkpt><trkpt lat="44.9257833" lon="7.2766617"><ele>985.0</ele><time>2026-03-29T12:36:21.958Z</time></trkpt><trkpt lat="44.9257233" lon="7.2767217"><ele>981.6666666666666</ele><time>2026-03-29T12:36:22.958Z</time></trkpt><trkpt lat="44.9256517" lon="7.2767867"><ele>978.3333333333333</ele><time>2026-03-29T12:36:23.958Z</time></trkpt><trkpt lat="44.9255833" lon="7.2768567"><ele>975.0</ele><time>2026-03-29T12:36:24.957Z</time></trkpt><trkpt lat="44.925515" lon="7.2769183"><ele>971.6666666666667</ele><time>2026-03-29T12:36:25.958Z</time></trkpt><trkpt lat="44.9254533" lon="7.2769717"><ele>968.3333333333334</ele><time>2026-03-29T12:36:26.958Z</time></trkpt><trkpt lat="44.92539" lon="7.2770167"><ele>965.0</ele><time>2026-03-29T12:36:27.957Z</time></trkpt><trkpt lat="44.92533" lon="7.2770567"><ele>965.0000000000001</ele><time>2026-03-29T12:36:28.958Z</time></trkpt><trkpt lat="44.9252667" lon="7.2771067"><ele>965.0</ele><time>2026-03-29T12:36:29.958Z</time></trkpt><trkpt lat="44.9251933" lon="7.2771417"><ele>965.0</ele><time>2026-03-29T12:36:30.958Z</time></trkpt><trkpt lat="44.9251233" lon="7.27716"><ele>965.0</ele><time>2026-03-29T12:36:31.958Z</time></trkpt><trkpt lat="44.92505" lon="7.277165"><ele>965.0000000000001</ele><time>2026-03-29T12:36:32.958Z</time></trkpt><trkpt lat="44.924965" lon="7.2771667"><ele>965.0</ele><time>2026-03-29T12:36:33.958Z</time></trkpt><trkpt lat="44.924885" lon="7.2771483"><ele>961.6</ele><time>2026-03-29T12:36:34.958Z</time></trkpt><trkpt lat="44.924785" lon="7.2771233"><ele>958.2</ele><time>2026-03-29T12:36:35.958Z</time></trkpt><trkpt lat="44.9246883" lon="7.27708"><ele>954.8</ele><time>2026-03-29T12:36:36.958Z</time></trkpt><trkpt lat="44.92459" lon="7.2770183"><ele>951.4</ele><time>2026-03-29T12:36:37.957Z</time></trkpt><trkpt lat="44.9245033" lon="7.27697"><ele>948.0</ele><time>2026-03-29T12:36:38.958Z</time></trkpt><trkpt lat="44.9244017" lon="7.2769183"><ele>948.0</ele><time>2026-03-29T12:36:39.957Z</time></trkpt><trkpt lat="44.92432" lon="7.2768767"><ele>948.0</ele><time>2026-03-29T12:36:40.958Z</time></trkpt><trkpt lat="44.9242333" lon="7.2768517"><ele>948.0</ele><time>2026-03-29T12:36:41.958Z</time></trkpt><trkpt lat="44.9241367" lon="7.2768417"><ele>948.0</ele><time>2026-03-29T12:36:42.958Z</time></trkpt><trkpt lat="44.9240533" lon="7.2768533"><ele>948.0</ele><time>2026-03-29T12:36:43.958Z</time></trkpt><trkpt lat="44.9239917" lon="7.276905"><ele>948.0</ele><time>2026-03-29T12:36:44.958Z</time></trkpt><trkpt lat="44.9239283" lon="7.276965"><ele>948.142857142857</ele><time>2026-03-29T12:36:45.958Z</time></trkpt><trkpt lat="44.923865" lon="7.277035"><ele>948.2857142857142</ele><time>2026-03-29T12:36:46.958Z</time></trkpt><trkpt lat="44.923805" lon="7.2771133"><ele>948.4285714285714</ele><time>2026-03-29T12:36:47.958Z</time></trkpt><trkpt lat="44.9237583" lon="7.2771917"><ele>948.5714285714286</ele><time>2026-03-29T12:36:48.958Z</time></trkpt><trkpt lat="44.9237183" lon="7.27727"><ele>948.7142857142858</ele><time>2026-03-29T12:36:49.958Z</time></trkpt><trkpt lat="44.9236817" lon="7.277345"><ele>948.857142857143</ele><time>2026-03-29T12:36:50.958Z</time></trkpt><trkpt lat="44.9236417" lon="7.27743"><ele>949.0000000000001</ele><time>2026-03-29T12:36:51.958Z</time></trkpt><trkpt lat="44.9236167" lon="7.277515"><ele>948.4999999999999</ele><time>2026-03-29T12:36:52.958Z</time></trkpt><trkpt lat="44.9235733" lon="7.27759"><ele>948.0</ele><time>2026-03-29T12:36:53.958Z</time></trkpt><trkpt lat="44.9235133" lon="7.2776533"><ele>947.5</ele><time>2026-03-29T12:36:54.958Z</time></trkpt><trkpt lat="44.9234417" lon="7.2777117"><ele>947.0</ele><time>2026-03-29T12:36:55.958Z</time></trkpt><trkpt lat="44.9233583" lon="7.2777717"><ele>946.4999999999999</ele><time>2026-03-29T12:36:56.958Z</time></trkpt><trkpt lat="44.92328" lon="7.277825"><ele>946.0</ele><time>2026-03-29T12:36:57.958Z</time></trkpt><trkpt lat="44.9232067" lon="7.2778717"><ele>945.9999999999999</ele><time>2026-03-29T12:36:58.958Z</time></trkpt><trkpt lat="44.92314" lon="7.2779233"><ele>946.0</ele><time>2026-03-29T12:36:59.958Z</time></trkpt><trkpt lat="44.923075" lon="7.2779583"><ele>946.0</ele><time>2026-03-29T12:37:00.958Z</time></trkpt><trkpt lat="44.9229567" lon="7.2780083"><ele>946.0</ele><time>2026-03-29T12:37:02.958Z</time></trkpt><trkpt lat="44.9228867" lon="7.2780133"><ele>945.9999999999999</ele><time>2026-03-29T12:37:03.958Z</time></trkpt><trkpt lat="44.9228083" lon="7.2780033"><ele>946.0</ele><time>2026-03-29T12:37:04.958Z</time></trkpt><trkpt lat="44.9227183" lon="7.2779967"><ele>946.0</ele><time>2026-03-29T12:37:05.958Z</time></trkpt><trkpt lat="44.9226333" lon="7.2779983"><ele>946.0</ele><time>2026-03-29T12:37:06.958Z</time></trkpt><trkpt lat="44.92256" lon="7.2779883"><ele>946.0</ele><time>2026-03-29T12:37:07.958Z</time></trkpt><trkpt lat="44.9224917" lon="7.2779883"><ele>946.0</ele><time>2026-03-29T12:37:08.958Z</time></trkpt><trkpt lat="44.9224283" lon="7.2779733"><ele>946.0</ele><time>2026-03-29T12:37:09.958Z</time></trkpt><trkpt lat="44.9223683" lon="7.277935"><ele>946.0</ele><time>2026-03-29T12:37:10.958Z</time></trkpt><trkpt lat="44.9223133" lon="7.2778683"><ele>946.0</ele><time>2026-03-29T12:37:11.958Z</time></trkpt><trkpt lat="44.9222583" lon="7.2777783"><ele>945.1999999999999</ele><time>2026-03-29T12:37:12.958Z</time></trkpt><trkpt lat="44.9222" lon="7.2776717"><ele>944.3999999999999</ele><time>2026-03-29T12:37:13.958Z</time></trkpt><trkpt lat="44.9221317" lon="7.2775667"><ele>943.6</ele><time>2026-03-29T12:37:14.958Z</time></trkpt><trkpt lat="44.9220567" lon="7.2774867"><ele>942.8</ele><time>2026-03-29T12:37:15.958Z</time></trkpt><trkpt lat="44.92197" lon="7.2774167"><ele>942.0</ele><time>2026-03-29T12:37:16.958Z</time></trkpt><trkpt lat="44.9218783" lon="7.27735"><ele>942.0</ele><time>2026-03-29T12:37:17.958Z</time></trkpt><trkpt lat="44.9217717" lon="7.2772883"><ele>942.0</ele><time>2026-03-29T12:37:18.958Z</time></trkpt><trkpt lat="44.9216733" lon="7.2772233"><ele>942.0</ele><time>2026-03-29T12:37:19.958Z</time></trkpt><trkpt lat="44.92158" lon="7.27716"><ele>942.0</ele><time>2026-03-29T12:37:20.958Z</time></trkpt><trkpt lat="44.9214933" lon="7.2771083"><ele>942.0</ele><time>2026-03-29T12:37:21.958Z</time></trkpt><trkpt lat="44.92142" lon="7.2770317"><ele>941.0000000000001</ele><time>2026-03-29T12:37:22.958Z</time></trkpt><trkpt lat="44.9213683" lon="7.27694"><ele>940.0</ele><time>2026-03-29T12:37:23.958Z</time></trkpt><trkpt lat="44.9213133" lon="7.2768467"><ele>939.0000000000001</ele><time>2026-03-29T12:37:24.958Z</time></trkpt><trkpt lat="44.921265" lon="7.276775"><ele>938.0000000000001</ele><time>2026-03-29T12:37:25.958Z</time></trkpt><trkpt lat="44.9212133" lon="7.2767183"><ele>937.0</ele><time>2026-03-29T12:37:26.958Z</time></trkpt><trkpt lat="44.92115" lon="7.2766733"><ele>936.0000000000001</ele><time>2026-03-29T12:37:27.958Z</time></trkpt><trkpt lat="44.921085" lon="7.2766467"><ele>935.0000000000001</ele><time>2026-03-29T12:37:28.958Z</time></trkpt><trkpt lat="44.9209583" lon="7.27672"><ele>935.6</ele><time>2026-03-29T12:37:30.958Z</time></trkpt><trkpt lat="44.9208983" lon="7.2768133"><ele>936.2</ele><time>2026-03-29T12:37:31.957Z</time></trkpt><trkpt lat="44.9208283" lon="7.2769533"><ele>936.8</ele><time>2026-03-29T12:37:32.958Z</time></trkpt><trkpt lat="44.9207533" lon="7.2770933"><ele>937.4</ele><time>2026-03-29T12:37:33.958Z</time></trkpt><trkpt lat="44.9206783" lon="7.27721"><ele>938.0</ele><time>2026-03-29T12:37:34.958Z</time></trkpt><trkpt lat="44.92061" lon="7.2773067"><ele>939.8333333333334</ele><time>2026-03-29T12:37:35.958Z</time></trkpt><trkpt lat="44.9205433" lon="7.27738"><ele>941.6666666666667</ele><time>2026-03-29T12:37:36.958Z</time></trkpt><trkpt lat="44.9204817" lon="7.2774667"><ele>943.5</ele><time>2026-03-29T12:37:37.958Z</time></trkpt><trkpt lat="44.9204267" lon="7.2775633"><ele>945.3333333333333</ele><time>2026-03-29T12:37:38.958Z</time></trkpt><trkpt lat="44.9203867" lon="7.2776783"><ele>947.1666666666666</ele><time>2026-03-29T12:37:39.958Z</time></trkpt><trkpt lat="44.9203517" lon="7.2777883"><ele>949.0</ele><time>2026-03-29T12:37:40.958Z</time></trkpt><trkpt lat="44.92032" lon="7.2778917"><ele>948.9999999999999</ele><time>2026-03-29T12:37:41.958Z</time></trkpt><trkpt lat="44.9202883" lon="7.2779867"><ele>949.0</ele><time>2026-03-29T12:37:42.958Z</time></trkpt><trkpt lat="44.92024" lon="7.27806"><ele>949.0</ele><time>2026-03-29T12:37:43.958Z</time></trkpt><trkpt lat="44.920165" lon="7.2781117"><ele>949.0</ele><time>2026-03-29T12:37:44.958Z</time></trkpt><trkpt lat="44.9200733" lon="7.278155"><ele>948.9999999999999</ele><time>2026-03-29T12:37:45.958Z</time></trkpt><trkpt lat="44.9199783" lon="7.278205"><ele>949.0</ele><time>2026-03-29T12:37:46.958Z</time></trkpt><trkpt lat="44.9198717" lon="7.2782733"><ele>950.2</ele><time>2026-03-29T12:37:47.957Z</time></trkpt><trkpt lat="44.9197667" lon="7.2783467"><ele>951.4000000000001</ele><time>2026-03-29T12:37:48.958Z</time></trkpt><trkpt lat="44.91967" lon="7.2784033"><ele>952.6</ele><time>2026-03-29T12:37:49.958Z</time></trkpt><trkpt lat="44.91958" lon="7.2784383"><ele>953.8</ele><time>2026-03-29T12:37:50.958Z</time></trkpt><trkpt lat="44.9194867" lon="7.2784683"><ele>955.0</ele><time>2026-03-29T12:37:51.958Z</time></trkpt><trkpt lat="44.91941" lon="7.278505"><ele>955.0</ele><time>2026-03-29T12:37:52.958Z</time></trkpt><trkpt lat="44.9193367" lon="7.2785767"><ele>955.0</ele><time>2026-03-29T12:37:53.958Z</time></trkpt><trkpt lat="44.9192717" lon="7.2786717"><ele>955.0</ele><time>2026-03-29T12:37:54.958Z</time></trkpt><trkpt lat="44.9192017" lon="7.2787817"><ele>955.0</ele><time>2026-03-29T12:37:55.958Z</time></trkpt><trkpt lat="44.9191267" lon="7.2789133"><ele>955.0</ele><time>2026-03-29T12:37:56.958Z</time></trkpt><trkpt lat="44.9190583" lon="7.2790317"><ele>956.0</ele><time>2026-03-29T12:37:57.957Z</time></trkpt><trkpt lat="44.9189983" lon="7.2791667"><ele>956.0</ele><time>2026-03-29T12:37:58.958Z</time></trkpt></trkseg></trk></gpx>